Observation data for Caprock Canyons on 10/18/2019      Previous  Date       Current Mesonet Observations  Soil Data  Daily Summary Page  Observations in Plain Language
KQU1 180500Z 20008KT 13/05 A2984 RMK A01 T01340054  RH  058%=      5-min Rain = 0
KQU1 180501Z 20009KT 13/05 A2984 RMK A01 T01340054  RH  058%=      5-min Rain = 0
KQU1 180502Z 20009KT 14/05 A2984 RMK A01 T01350054  RH  058%=      5-min Rain = 0
KQU1 180503Z 20009KT 14/05 A2984 RMK A01 T01360054  RH  058%=      5-min Rain = 0
KQU1 180504Z 20009KT 14/05 A2984 RMK A01 T01370053  RH  057%=      5-min Rain = 0
KQU1 180505Z 20009KT 14/05 A2984 RMK A01 T01380053  RH  057%=      5-min Rain = 0
KQU1 180506Z 20008KT 14/05 A2984 RMK A01 T01380053  RH  056%=      5-min Rain = 0
KQU1 180507Z 20008KT 14/05 A2984 RMK A01 T01380053  RH  056%=      5-min Rain = 0
KQU1 180508Z 20008KT 14/05 A2984 RMK A01 T01380053  RH  056%=      5-min Rain = 0
KQU1 180509Z 20008KT 14/05 A2984 RMK A01 T01380052  RH  056%=      5-min Rain = 0
KQU1 180510Z 20008KT 14/05 A2984 RMK A01 T01380052  RH  056%=      5-min Rain = 0
KQU1 180511Z 20008KT 14/05 A2984 RMK A01 T01380052  RH  056%=      5-min Rain = 0
KQU1 180512Z 20008KT 14/05 A2984 RMK A01 T01380052  RH  056%=      5-min Rain = 0
KQU1 180513Z 20008KT 14/05 A2984 RMK A01 T01380051  RH  056%=      5-min Rain = 0
KQU1 180514Z 20008KT 14/05 A2984 RMK A01 T01380051  RH  056%=      5-min Rain = 0
KQU1 180515Z 20009KT 14/05 A2984 RMK A01 T01390051  RH  055%=      5-min Rain = 0
KQU1 180516Z 20009KT 14/05 A2984 RMK A01 T01390050  RH  055%=      5-min Rain = 0
KQU1 180517Z 20009KT 14/05 A2984 RMK A01 T01400049  RH  054%=      5-min Rain = 0
KQU1 180518Z 20010KT 14/05 A2984 RMK A01 T01410048  RH  053%=      5-min Rain = 0
KQU1 180519Z 20010KT 14/05 A2984 RMK A01 T01430047  RH  052%=      5-min Rain = 0
KQU1 180520Z 19010KT 15/05 A2984 RMK A01 T01450047  RH  052%=      5-min Rain = 0
KQU1 180521Z 19010KT 15/05 A2984 RMK A01 T01470046  RH  051%=      5-min Rain = 0
KQU1 180522Z 20011KT 15/05 A2984 RMK A01 T01480045  RH  050%=      5-min Rain = 0
KQU1 180523Z 20010KT 15/04 A2984 RMK A01 T01490044  RH  049%=      5-min Rain = 0
KQU1 180524Z 20011KT 15/04 A2984 RMK A01 T01500043  RH  049%=      5-min Rain = 0
KQU1 180525Z 20010KT 15/04 A2984 RMK A01 T01510043  RH  048%=      5-min Rain = 0
KQU1 180526Z 20011KT 15/04 A2984 RMK A01 T01520042  RH  048%=      5-min Rain = 0
KQU1 180527Z 20010KT 15/04 A2984 RMK A01 T01530041  RH  047%=      5-min Rain = 0
KQU1 180528Z 19010KT 15/04 A2984 RMK A01 T01540041  RH  047%=      5-min Rain = 0
KQU1 180529Z 20011KT 15/04 A2984 RMK A01 T01540041  RH  047%=      5-min Rain = 0
KQU1 180530Z 20011KT 15/04 A2984 RMK A01 T01540040  RH  047%=      5-min Rain = 0
KQU1 180531Z 20010KT 15/04 A2984 RMK A01 T01540040  RH  047%=      5-min Rain = 0
KQU1 180532Z 20011KT 15/04 A2984 RMK A01 T01540040  RH  046%=      5-min Rain = 0
KQU1 180533Z 19011KT 16/04 A2983 RMK A01 T01550039  RH  046%=      5-min Rain = 0
KQU1 180534Z 19011KT 16/04 A2983 RMK A01 T01560039  RH  046%=      5-min Rain = 0
KQU1 180535Z 19010KT 16/04 A2983 RMK A01 T01560039  RH  046%=      5-min Rain = 0
KQU1 180536Z 19011KT 16/04 A2983 RMK A01 T01560039  RH  046%=      5-min Rain = 0
KQU1 180537Z 19011KT 16/04 A2983 RMK A01 T01560038  RH  045%=      5-min Rain = 0
KQU1 180538Z 20011KT 16/04 A2983 RMK A01 T01560038  RH  045%=      5-min Rain = 0
KQU1 180539Z 20011KT 16/04 A2984 RMK A01 T01560038  RH  045%=      5-min Rain = 0
KQU1 180540Z 20012KT 16/04 A2984 RMK A01 T01560037  RH  045%=      5-min Rain = 0
KQU1 180541Z 20012KT 16/04 A2984 RMK A01 T01570037  RH  045%=      5-min Rain = 0
KQU1 180542Z 20012KT 16/04 A2984 RMK A01 T01580037  RH  044%=      5-min Rain = 0
KQU1 180543Z 20013KT 16/04 A2983 RMK A01 T01580036  RH  044%=      5-min Rain = 0
KQU1 180544Z 20013KT 16/04 A2983 RMK A01 T01590036  RH  044%=      5-min Rain = 0
KQU1 180545Z 20012KT 16/04 A2983 RMK A01 T01590035  RH  044%=      5-min Rain = 0
KQU1 180546Z 20012KT 16/04 A2983 RMK A01 T01590036  RH  044%=      5-min Rain = 0
KQU1 180547Z 20012G17KT 16/04 A2983 RMK A01 T01590035  RH  044%=      5-min Rain = 0
KQU1 180548Z 20013KT 16/04 A2983 RMK A01 T01590035  RH  044%=      5-min Rain = 0
KQU1 180549Z 20014KT 16/04 A2983 RMK A01 T01590035  RH  043%=      5-min Rain = 0
KQU1 180550Z 20014KT 16/03 A2983 RMK A01 T01600034  RH  043%=      5-min Rain = 0
KQU1 180551Z 20015KT 16/03 A2983 RMK A01 T01600034  RH  043%=      5-min Rain = 0
KQU1 180552Z 20014KT 16/03 A2983 RMK A01 T01610034  RH  043%=      5-min Rain = 0
KQU1 180553Z 20014KT 16/03 A2983 RMK A01 T01610033  RH  042%=      5-min Rain = 0
KQU1 180554Z 20015KT 16/03 A2983 RMK A01 T01610033  RH  042%=      5-min Rain = 0
KQU1 180555Z 20016KT 16/03 A2983 RMK A01 T01610033  RH  042%=      5-min Rain = 0
KQU1 180556Z 20015KT 16/03 A2983 RMK A01 T01620033  RH  042%=      5-min Rain = 0
KQU1 180557Z 20016KT 16/03 A2983 RMK A01 T01630032  RH  042%=      5-min Rain = 0
KQU1 180558Z 20015KT 16/03 A2983 RMK A01 T01630032  RH  041%=      5-min Rain = 0
KQU1 180559Z 20015KT 16/03 A2983 RMK A01 T01630032  RH  041%=      5-min Rain = 0
KQU1 180600Z 20015KT 16/03 A2983 RMK A01 T01630032  RH  041%=      5-min Rain = 0
KQU1 180601Z 20013KT 16/03 A2983 RMK A01 T01630032  RH  042%=      5-min Rain = 0
KQU1 180602Z 20015KT 16/03 A2983 RMK A01 T01620032  RH  042%=      5-min Rain = 0
KQU1 180603Z 20015KT 16/03 A2983 RMK A01 T01620032  RH  042%=      5-min Rain = 0
KQU1 180604Z 20015KT 16/03 A2983 RMK A01 T01620031  RH  042%=      5-min Rain = 0
KQU1 180605Z 20015KT 16/03 A2983 RMK A01 T01630031  RH  041%=      5-min Rain = 0
KQU1 180606Z 20015KT 16/03 A2983 RMK A01 T01630031  RH  041%=      5-min Rain = 0
KQU1 180607Z 20015KT 16/03 A2983 RMK A01 T01630031  RH  041%=      5-min Rain = 0
KQU1 180608Z 20015KT 16/03 A2983 RMK A01 T01630031  RH  041%=      5-min Rain = 0
KQU1 180609Z 20014KT 16/03 A2983 RMK A01 T01620031  RH  041%=      5-min Rain = 0
KQU1 180610Z 20014G19KT 16/03 A2983 RMK A01 T01620031  RH  042%=      5-min Rain = 0
KQU1 180611Z 20014KT 16/03 A2983 RMK A01 T01620031  RH  042%=      5-min Rain = 0
KQU1 180612Z 20014KT 16/03 A2983 RMK A01 T01620031  RH  041%=      5-min Rain = 0
KQU1 180613Z 20015KT 16/03 A2983 RMK A01 T01620031  RH  041%=      5-min Rain = 0
KQU1 180614Z 20015KT 16/03 A2983 RMK A01 T01630030  RH  041%=      5-min Rain = 0
KQU1 180615Z 20015KT 16/03 A2983 RMK A01 T01630030  RH  041%=      5-min Rain = 0
KQU1 180616Z 20014KT 16/03 A2983 RMK A01 T01640030  RH  041%=      5-min Rain = 0
KQU1 180617Z 20013KT 16/03 A2983 RMK A01 T01640030  RH  041%=      5-min Rain = 0
KQU1 180618Z 20014KT 16/03 A2983 RMK A01 T01630030  RH  041%=      5-min Rain = 0
KQU1 180619Z 20015KT 16/03 A2983 RMK A01 T01630030  RH  041%=      5-min Rain = 0
KQU1 180620Z 20015KT 16/03 A2983 RMK A01 T01630029  RH  041%=      5-min Rain = 0
KQU1 180621Z 20015KT 16/03 A2983 RMK A01 T01640029  RH  041%=      5-min Rain = 0
KQU1 180622Z 19014KT 16/03 A2983 RMK A01 T01630029  RH  041%=      5-min Rain = 0
KQU1 180623Z 20014KT 16/03 A2983 RMK A01 T01630029  RH  041%=      5-min Rain = 0
KQU1 180624Z 20014KT 16/03 A2983 RMK A01 T01630029  RH  041%=      5-min Rain = 0
KQU1 180625Z 20014KT 16/03 A2983 RMK A01 T01630029  RH  041%=      5-min Rain = 0
KQU1 180626Z 20014KT 16/03 A2983 RMK A01 T01630029  RH  041%=      5-min Rain = 0
KQU1 180627Z 19016KT 16/03 A2983 RMK A01 T01630028  RH  040%=      5-min Rain = 0
KQU1 180628Z 19015KT 16/03 A2983 RMK A01 T01640028  RH  040%=      5-min Rain = 0
KQU1 180629Z 19015KT 16/03 A2983 RMK A01 T01640028  RH  040%=      5-min Rain = 0
KQU1 180630Z 20014KT 16/03 A2983 RMK A01 T01630028  RH  040%=      5-min Rain = 0
KQU1 180631Z 20015KT 16/03 A2983 RMK A01 T01630028  RH  040%=      5-min Rain = 0
KQU1 180632Z 20014KT 16/03 A2983 RMK A01 T01630028  RH  040%=      5-min Rain = 0
KQU1 180633Z 20014KT 16/03 A2983 RMK A01 T01630028  RH  040%=      5-min Rain = 0
KQU1 180634Z 20016KT 16/03 A2983 RMK A01 T01630028  RH  040%=      5-min Rain = 0
KQU1 180635Z 20015KT 16/03 A2983 RMK A01 T01630027  RH  040%=      5-min Rain = 0
KQU1 180636Z 20014KT 16/03 A2983 RMK A01 T01630028  RH  040%=      5-min Rain = 0
KQU1 180637Z 20015KT 16/03 A2983 RMK A01 T01620027  RH  040%=      5-min Rain = 0
KQU1 180638Z 20014KT 16/03 A2983 RMK A01 T01620028  RH  040%=      5-min Rain = 0
KQU1 180639Z 20014KT 16/03 A2983 RMK A01 T01610028  RH  041%=      5-min Rain = 0
KQU1 180640Z 20014KT 16/03 A2983 RMK A01 T01610028  RH  041%=      5-min Rain = 0
KQU1 180641Z 20014KT 16/03 A2983 RMK A01 T01610028  RH  041%=      5-min Rain = 0
KQU1 180642Z 20015KT 16/03 A2983 RMK A01 T01610028  RH  041%=      5-min Rain = 0
KQU1 180643Z 20014KT 16/03 A2983 RMK A01 T01610028  RH  041%=      5-min Rain = 0
KQU1 180644Z 20014KT 16/03 A2983 RMK A01 T01600028  RH  041%=      5-min Rain = 0
KQU1 180645Z 20016G21KT 16/03 A2983 RMK A01 T01600027  RH  041%=      5-min Rain = 0
KQU1 180646Z 20015KT 16/03 A2983 RMK A01 T01610027  RH  041%=      5-min Rain = 0
KQU1 180647Z 20014KT 16/03 A2983 RMK A01 T01610027  RH  041%=      5-min Rain = 0
KQU1 180648Z 20014KT 16/03 A2983 RMK A01 T01610028  RH  041%=      5-min Rain = 0
KQU1 180649Z 20014KT 16/03 A2983 RMK A01 T01600028  RH  041%=      5-min Rain = 0
KQU1 180650Z 20014KT 16/03 A2983 RMK A01 T01600028  RH  041%=      5-min Rain = 0
KQU1 180651Z 20013KT 16/03 A2983 RMK A01 T01590028  RH  041%=      5-min Rain = 0
KQU1 180652Z 20013KT 16/03 A2983 RMK A01 T01580029  RH  042%=      5-min Rain = 0
KQU1 180653Z 20014KT 16/03 A2983 RMK A01 T01570029  RH  042%=      5-min Rain = 0
KQU1 180654Z 20012KT 16/03 A2983 RMK A01 T01570029  RH  042%=      5-min Rain = 0
KQU1 180655Z 20012KT 16/03 A2983 RMK A01 T01560029  RH  043%=      5-min Rain = 0
KQU1 180656Z 20012KT 16/03 A2983 RMK A01 T01550029  RH  043%=      5-min Rain = 0
KQU1 180657Z 20013KT 16/03 A2983 RMK A01 T01550030  RH  043%=      5-min Rain = 0
KQU1 180658Z 20012KT 15/03 A2983 RMK A01 T01540030  RH  043%=      5-min Rain = 0
KQU1 180659Z 20013KT 15/03 A2983 RMK A01 T01540030  RH  043%=      5-min Rain = 0
KQU1 180700Z 19013KT 15/03 A2983 RMK A01 T01540030  RH  043%=      5-min Rain = 0
KQU1 180701Z 19014KT 15/03 A2983 RMK A01 T01540030  RH  043%=      5-min Rain = 0
KQU1 180702Z 19013KT 16/03 A2983 RMK A01 T01550030  RH  043%=      5-min Rain = 0
KQU1 180703Z 19013KT 16/03 A2983 RMK A01 T01550030  RH  043%=      5-min Rain = 0
KQU1 180704Z 19012KT 16/03 A2983 RMK A01 T01550030  RH  043%=      5-min Rain = 0
KQU1 180705Z 19013KT 16/03 A2983 RMK A01 T01550030  RH  043%=      5-min Rain = 0
KQU1 180706Z 19012KT 15/03 A2983 RMK A01 T01540031  RH  043%=      5-min Rain = 0
KQU1 180707Z 19013KT 15/03 A2983 RMK A01 T01540031  RH  044%=      5-min Rain = 0
KQU1 180708Z 19014KT 15/03 A2983 RMK A01 T01540031  RH  044%=      5-min Rain = 0
KQU1 180709Z 19013KT 15/03 A2983 RMK A01 T01540031  RH  043%=      5-min Rain = 0
KQU1 180710Z 19014KT 16/03 A2983 RMK A01 T01550030  RH  043%=      5-min Rain = 0
KQU1 180711Z 20015KT 16/03 A2983 RMK A01 T01560030  RH  043%=      5-min Rain = 0
KQU1 180712Z 19016KT 16/03 A2983 RMK A01 T01570030  RH  042%=      5-min Rain = 0
KQU1 180713Z 20015KT 16/03 A2983 RMK A01 T01580029  RH  042%=      5-min Rain = 0
KQU1 180714Z 19017KT 16/03 A2982 RMK A01 T01590028  RH  041%=      5-min Rain = 0
KQU1 180715Z 20017KT 16/03 A2982 RMK A01 T01600028  RH  041%=      5-min Rain = 0
KQU1 180716Z 20017KT 16/03 A2982 RMK A01 T01600028  RH  041%=      5-min Rain = 0
KQU1 180717Z 19017KT 16/03 A2982 RMK A01 T01610027  RH  041%=      5-min Rain = 0
KQU1 180718Z 20017KT 16/03 A2982 RMK A01 T01610026  RH  040%=      5-min Rain = 0
KQU1 180719Z 19017KT 16/03 A2982 RMK A01 T01610026  RH  040%=      5-min Rain = 0
KQU1 180720Z 20017KT 16/03 A2982 RMK A01 T01610026  RH  040%=      5-min Rain = 0
KQU1 180721Z 20018KT 16/03 A2982 RMK A01 T01610025  RH  040%=      5-min Rain = 0
KQU1 180722Z 19018KT 16/03 A2982 RMK A01 T01610025  RH  040%=      5-min Rain = 0
KQU1 180723Z 20017KT 16/03 A2982 RMK A01 T01610025  RH  040%=      5-min Rain = 0
KQU1 180724Z 19016KT 16/03 A2982 RMK A01 T01600025  RH  040%=      5-min Rain = 0
KQU1 180725Z 20016KT 16/03 A2982 RMK A01 T01600025  RH  040%=      5-min Rain = 0
KQU1 180726Z 20017KT 16/03 A2982 RMK A01 T01590025  RH  040%=      5-min Rain = 0
KQU1 180727Z 19016KT 16/03 A2982 RMK A01 T01590025  RH  040%=      5-min Rain = 0
KQU1 180728Z 19017KT 16/03 A2982 RMK A01 T01590025  RH  040%=      5-min Rain = 0
KQU1 180729Z 20016KT 16/03 A2982 RMK A01 T01590025  RH  040%=      5-min Rain = 0
KQU1 180730Z 19019KT 16/03 A2982 RMK A01 T01590025  RH  040%=      5-min Rain = 0
KQU1 180731Z 19018G23KT 16/03 A2982 RMK A01 T01590025  RH  040%=      5-min Rain = 0
KQU1 180732Z 19018KT 16/02 A2982 RMK A01 T01600024  RH  040%=      5-min Rain = 0
KQU1 180733Z 20017KT 16/02 A2982 RMK A01 T01590024  RH  040%=      5-min Rain = 0
KQU1 180734Z 19018G23KT 16/02 A2982 RMK A01 T01590024  RH  040%=      5-min Rain = 0
KQU1 180735Z 19020KT 16/02 A2982 RMK A01 T01590024  RH  040%=      5-min Rain = 0
KQU1 180736Z 19019KT 16/02 A2982 RMK A01 T01600024  RH  040%=      5-min Rain = 0
KQU1 180737Z 19018KT 16/02 A2982 RMK A01 T01600024  RH  040%=      5-min Rain = 0
KQU1 180738Z 19019KT 16/02 A2982 RMK A01 T01590024  RH  040%=      5-min Rain = 0
KQU1 180739Z 19018KT 16/02 A2982 RMK A01 T01590024  RH  040%=      5-min Rain = 0
KQU1 180740Z 19017KT 16/02 A2982 RMK A01 T01590024  RH  040%=      5-min Rain = 0
KQU1 180741Z 19018KT 16/03 A2982 RMK A01 T01580025  RH  041%=      5-min Rain = 0
KQU1 180742Z 19015KT 16/03 A2982 RMK A01 T01580025  RH  041%=      5-min Rain = 0
KQU1 180743Z 19017KT 16/03 A2982 RMK A01 T01570025  RH  041%=      5-min Rain = 0
KQU1 180744Z 19017KT 16/03 A2982 RMK A01 T01570025  RH  041%=      5-min Rain = 0
KQU1 180745Z 19016KT 16/03 A2982 RMK A01 T01570025  RH  041%=      5-min Rain = 0
KQU1 180746Z 19017KT 16/03 A2982 RMK A01 T01570025  RH  041%=      5-min Rain = 0
KQU1 180747Z 19017KT 16/03 A2982 RMK A01 T01560025  RH  041%=      5-min Rain = 0
KQU1 180748Z 19015KT 16/03 A2982 RMK A01 T01560025  RH  041%=      5-min Rain = 0
KQU1 180749Z 19015KT 16/03 A2982 RMK A01 T01560025  RH  041%=      5-min Rain = 0
KQU1 180750Z 19017KT 16/03 A2981 RMK A01 T01550026  RH  042%=      5-min Rain = 0
KQU1 180751Z 19016KT 16/03 A2981 RMK A01 T01550025  RH  042%=      5-min Rain = 0
KQU1 180752Z 19016KT 16/03 A2981 RMK A01 T01550026  RH  042%=      5-min Rain = 0
KQU1 180753Z 19015KT 15/03 A2981 RMK A01 T01540026  RH  042%=      5-min Rain = 0
KQU1 180754Z 19016KT 15/03 A2981 RMK A01 T01540026  RH  042%=      5-min Rain = 0
KQU1 180755Z 19016KT 15/03 A2981 RMK A01 T01540027  RH  042%=      5-min Rain = 0
KQU1 180756Z 19016KT 15/03 A2981 RMK A01 T01540027  RH  042%=      5-min Rain = 0
KQU1 180757Z 19017KT 15/03 A2981 RMK A01 T01540027  RH  042%=      5-min Rain = 0
KQU1 180758Z 19016KT 16/03 A2981 RMK A01 T01550027  RH  042%=      5-min Rain = 0
KQU1 180759Z 19016KT 16/03 A2981 RMK A01 T01550027  RH  042%=      5-min Rain = 0
KQU1 180800Z 19014KT 15/03 A2981 RMK A01 T01540028  RH  043%=      5-min Rain = 0
KQU1 180801Z 19015G20KT 15/03 A2981 RMK A01 T01540028  RH  043%=      5-min Rain = 0
KQU1 180802Z 19015KT 15/03 A2981 RMK A01 T01530028  RH  043%=      5-min Rain = 0
KQU1 180803Z 20016KT 15/03 A2981 RMK A01 T01530028  RH  043%=      5-min Rain = 0
KQU1 180804Z 20018KT 15/03 A2981 RMK A01 T01540028  RH  043%=      5-min Rain = 0
KQU1 180805Z 19018KT 16/03 A2981 RMK A01 T01550028  RH  043%=      5-min Rain = 0
KQU1 180806Z 20016KT 16/03 A2981 RMK A01 T01550028  RH  043%=      5-min Rain = 0
KQU1 180807Z 19018KT 16/03 A2981 RMK A01 T01550029  RH  043%=      5-min Rain = 0
KQU1 180808Z 19017KT 16/03 A2981 RMK A01 T01560029  RH  043%=      5-min Rain = 0
KQU1 180809Z 20016KT 16/03 A2981 RMK A01 T01560029  RH  043%=      5-min Rain = 0
KQU1 180810Z 20015KT 16/03 A2981 RMK A01 T01550029  RH  043%=      5-min Rain = 0
KQU1 180811Z 19015KT 16/03 A2981 RMK A01 T01550029  RH  043%=      5-min Rain = 0
KQU1 180812Z 19015KT 15/03 A2981 RMK A01 T01540029  RH  043%=      5-min Rain = 0
KQU1 180813Z 19014KT 15/03 A2981 RMK A01 T01540029  RH  043%=      5-min Rain = 0
KQU1 180814Z 19013KT 15/03 A2981 RMK A01 T01530029  RH  044%=      5-min Rain = 0
KQU1 180815Z 19015KT 15/03 A2981 RMK A01 T01520029  RH  044%=      5-min Rain = 0
KQU1 180816Z 20014KT 15/03 A2981 RMK A01 T01520030  RH  044%=      5-min Rain = 0
KQU1 180817Z 20014KT 15/03 A2981 RMK A01 T01510030  RH  044%=      5-min Rain = 0
KQU1 180818Z 20014KT 15/03 A2981 RMK A01 T01510031  RH  044%=      5-min Rain = 0
KQU1 180819Z 20014KT 15/03 A2981 RMK A01 T01500031  RH  045%=      5-min Rain = 0
KQU1 180820Z 19014KT 15/03 A2981 RMK A01 T01500031  RH  045%=      5-min Rain = 0
KQU1 180821Z 19014KT 15/03 A2981 RMK A01 T01500031  RH  045%=      5-min Rain = 0
KQU1 180822Z 19013KT 15/03 A2981 RMK A01 T01490031  RH  045%=      5-min Rain = 0
KQU1 180823Z 20015KT 15/03 A2981 RMK A01 T01490032  RH  045%=      5-min Rain = 0
KQU1 180824Z 20015KT 15/03 A2981 RMK A01 T01490032  RH  045%=      5-min Rain = 0
KQU1 180825Z 19015G20KT 15/03 A2981 RMK A01 T01490033  RH  046%=      5-min Rain = 0
KQU1 180826Z 19015G21KT 15/03 A2981 RMK A01 T01490034  RH  046%=      5-min Rain = 0
KQU1 180827Z 19015KT 15/03 A2981 RMK A01 T01490033  RH  046%=      5-min Rain = 0
KQU1 180828Z 20015KT 15/03 A2981 RMK A01 T01490033  RH  046%=      5-min Rain = 0
KQU1 180829Z 20017G22KT 15/04 A2981 RMK A01 T01490037  RH  047%=      5-min Rain = 0
KQU1 180830Z 20016KT 15/04 A2981 RMK A01 T01500040  RH  048%=      5-min Rain = 0
KQU1 180831Z 19016KT 15/04 A2981 RMK A01 T01510040  RH  047%=      5-min Rain = 0
KQU1 180832Z 19014KT 15/04 A2981 RMK A01 T01510037  RH  046%=      5-min Rain = 0
KQU1 180833Z 20014KT 15/04 A2981 RMK A01 T01500036  RH  046%=      5-min Rain = 0
KQU1 180834Z 20014KT 15/04 A2981 RMK A01 T01490036  RH  047%=      5-min Rain = 0
KQU1 180835Z 20014KT 15/04 A298 RMK A01 T01480038  RH  048%=      5-min Rain = 0
KQU1 180836Z 20016KT 15/04 A298 RMK A01 T01490041  RH  048%=      5-min Rain = 0
KQU1 180837Z 20014KT 15/04 A298 RMK A01 T01500041  RH  048%=      5-min Rain = 0
KQU1 180838Z 20015KT 15/04 A298 RMK A01 T01510042  RH  048%=      5-min Rain = 0
KQU1 180839Z 19014KT 15/04 A298 RMK A01 T01510042  RH  048%=      5-min Rain = 0
KQU1 180840Z 19014KT 15/04 A298 RMK A01 T01510042  RH  048%=      5-min Rain = 0
KQU1 180841Z 20015KT 15/04 A298 RMK A01 T01500043  RH  049%=      5-min Rain = 0
KQU1 180842Z 20017G23KT 15/05 A298 RMK A01 T01510046  RH  049%=      5-min Rain = 0
KQU1 180843Z 20019KT 15/05 A298 RMK A01 T01530048  RH  049%=      5-min Rain = 0
KQU1 180844Z 20014KT 16/05 A298 RMK A01 T01550046  RH  048%=      5-min Rain = 0
KQU1 180845Z 20013KT 15/05 A298 RMK A01 T01540045  RH  048%=      5-min Rain = 0
KQU1 180846Z 20015G21KT 15/05 A298 RMK A01 T01540046  RH  048%=      5-min Rain = 0
KQU1 180847Z 19013KT 15/04 A298 RMK A01 T01530044  RH  048%=      5-min Rain = 0
KQU1 180848Z 20017G22KT 15/05 A298 RMK A01 T01520046  RH  049%=      5-min Rain = 0
KQU1 180849Z 19013KT 15/05 A298 RMK A01 T01530046  RH  049%=      5-min Rain = 0
KQU1 180850Z 19016G21KT 15/05 A298 RMK A01 T01530046  RH  049%=      5-min Rain = 0
KQU1 180851Z 20016KT 15/05 A298 RMK A01 T01540049  RH  050%=      5-min Rain = 0
KQU1 180852Z 20016KT 16/05 A298 RMK A01 T01550049  RH  049%=      5-min Rain = 0
KQU1 180853Z 20015KT 16/05 A298 RMK A01 T01550048  RH  049%=      5-min Rain = 0
KQU1 180854Z 20013KT 15/05 A298 RMK A01 T01540048  RH  049%=      5-min Rain = 0
KQU1 180855Z 20015KT 15/05 A298 RMK A01 T01540049  RH  049%=      5-min Rain = 0
KQU1 180856Z 20017KT 16/05 A2979 RMK A01 T01550052  RH  050%=      5-min Rain = 0
KQU1 180857Z 21014KT 16/05 A2979 RMK A01 T01570051  RH  049%=      5-min Rain = 0
KQU1 180858Z 20014KT 16/05 A2979 RMK A01 T01560050  RH  049%=      5-min Rain = 0
KQU1 180859Z 20014KT 16/05 A2979 RMK A01 T01560049  RH  049%=      5-min Rain = 0
KQU1 180900Z 20014KT 16/05 A2979 RMK A01 T01550050  RH  050%=      5-min Rain = 0
KQU1 180901Z 20013KT 15/05 A2979 RMK A01 T01540050  RH  050%=      5-min Rain = 0
KQU1 180902Z 20014KT 15/05 A2979 RMK A01 T01540051  RH  050%=      5-min Rain = 0
KQU1 180903Z 20014KT 15/05 A2979 RMK A01 T01530052  RH  051%=      5-min Rain = 0
KQU1 180904Z 20013KT 15/05 A2979 RMK A01 T01530052  RH  051%=      5-min Rain = 0
KQU1 180905Z 20013KT 15/05 A2979 RMK A01 T01530053  RH  051%=      5-min Rain = 0
KQU1 180906Z 20014KT 15/06 A2979 RMK A01 T01530055  RH  052%=      5-min Rain = 0
KQU1 180907Z 20011KT 15/06 A2979 RMK A01 T01530055  RH  052%=      5-min Rain = 0
KQU1 180908Z 20013KT 15/06 A2979 RMK A01 T01530057  RH  053%=      5-min Rain = 0
KQU1 180909Z 20014KT 15/06 A2979 RMK A01 T01540058  RH  053%=      5-min Rain = 0
KQU1 180910Z 20014KT 15/06 A2979 RMK A01 T01540058  RH  053%=      5-min Rain = 0
KQU1 180911Z 20014KT 16/06 A2979 RMK A01 T01550058  RH  053%=      5-min Rain = 0
KQU1 180912Z 20015KT 16/06 A2979 RMK A01 T01550060  RH  053%=      5-min Rain = 0
KQU1 180913Z 20013KT 16/06 A2979 RMK A01 T01560061  RH  053%=      5-min Rain = 0
KQU1 180914Z 21013KT 16/06 A2979 RMK A01 T01560061  RH  053%=      5-min Rain = 0
KQU1 180915Z 21014KT 16/06 A2979 RMK A01 T01560062  RH  053%=      5-min Rain = 0
KQU1 180916Z 21013KT 16/06 A2979 RMK A01 T01560061  RH  053%=      5-min Rain = 0
KQU1 180917Z 21014KT 16/06 A2979 RMK A01 T01560061  RH  053%=      5-min Rain = 0
KQU1 180918Z 20016G22KT 16/06 A2979 RMK A01 T01560062  RH  053%=      5-min Rain = 0
KQU1 180919Z 20017KT 16/06 A2979 RMK A01 T01570063  RH  053%=      5-min Rain = 0
KQU1 180920Z 21015KT 16/06 A2979 RMK A01 T01580064  RH  053%=      5-min Rain = 0
KQU1 180921Z 21017KT 16/06 A2978 RMK A01 T01590064  RH  053%=      5-min Rain = 0
KQU1 180922Z 21016KT 16/06 A2978 RMK A01 T01590063  RH  053%=      5-min Rain = 0
KQU1 180923Z 21015KT 16/06 A2978 RMK A01 T01590062  RH  052%=      5-min Rain = 0
KQU1 180924Z 21017KT 16/06 A2978 RMK A01 T01590062  RH  053%=      5-min Rain = 0
KQU1 180925Z 21015KT 16/06 A2978 RMK A01 T01590063  RH  053%=      5-min Rain = 0
KQU1 180926Z 21015KT 16/06 A2978 RMK A01 T01580062  RH  053%=      5-min Rain = 0
KQU1 180927Z 21014G19KT 16/06 A2978 RMK A01 T01580062  RH  053%=      5-min Rain = 0
KQU1 180928Z 21017KT 16/06 A2978 RMK A01 T01580063  RH  053%=      5-min Rain = 0
KQU1 180929Z 21017KT 16/06 A2978 RMK A01 T01580062  RH  053%=      5-min Rain = 0
KQU1 180930Z 21016KT 16/06 A2978 RMK A01 T01580061  RH  053%=      5-min Rain = 0
KQU1 180931Z 21017KT 16/06 A2978 RMK A01 T01580062  RH  053%=      5-min Rain = 0
KQU1 180932Z 21016KT 16/06 A2978 RMK A01 T01570061  RH  053%=      5-min Rain = 0
KQU1 180933Z 21016KT 16/06 A2978 RMK A01 T01570060  RH  052%=      5-min Rain = 0
KQU1 180934Z 21016KT 16/06 A2978 RMK A01 T01570060  RH  053%=      5-min Rain = 0
KQU1 180935Z 21017KT 16/06 A2978 RMK A01 T01560062  RH  053%=      5-min Rain = 0
KQU1 180936Z 21015KT 16/06 A2978 RMK A01 T01560062  RH  053%=      5-min Rain = 0
KQU1 180937Z 21015KT 16/06 A2978 RMK A01 T01560062  RH  053%=      5-min Rain = 0
KQU1 180938Z 21015KT 16/06 A2978 RMK A01 T01560062  RH  053%=      5-min Rain = 0
KQU1 180939Z 21016KT 16/06 A2978 RMK A01 T01560063  RH  054%=      5-min Rain = 0
KQU1 180940Z 21015KT 16/06 A2978 RMK A01 T01560063  RH  054%=      5-min Rain = 0
KQU1 180941Z 21015KT 16/06 A2978 RMK A01 T01560063  RH  054%=      5-min Rain = 0
KQU1 180942Z 21015KT 16/06 A2978 RMK A01 T01560063  RH  054%=      5-min Rain = 0
KQU1 180943Z 21016KT 16/06 A2978 RMK A01 T01560063  RH  054%=      5-min Rain = 0
KQU1 180944Z 21018G23KT 16/06 A2978 RMK A01 T01560064  RH  054%=      5-min Rain = 0
KQU1 180945Z 21014KT 16/06 A2978 RMK A01 T01570063  RH  054%=      5-min Rain = 0
KQU1 180946Z 21015KT 16/06 A2978 RMK A01 T01560063  RH  054%=      5-min Rain = 0
KQU1 180947Z 21014KT 16/06 A2978 RMK A01 T01560063  RH  054%=      5-min Rain = 0
KQU1 180948Z 21014KT 16/06 A2978 RMK A01 T01550064  RH  054%=      5-min Rain = 0
KQU1 180949Z 21014KT 16/06 A2978 RMK A01 T01550064  RH  055%=      5-min Rain = 0
KQU1 180950Z 21016KT 16/06 A2978 RMK A01 T01550064  RH  055%=      5-min Rain = 0
KQU1 180951Z 21015KT 16/06 A2978 RMK A01 T01550064  RH  055%=      5-min Rain = 0
KQU1 180952Z 21016KT 16/06 A2978 RMK A01 T01550064  RH  055%=      5-min Rain = 0
KQU1 180953Z 21014KT 16/06 A2978 RMK A01 T01550064  RH  055%=      5-min Rain = 0
KQU1 180954Z 21016KT 16/06 A2978 RMK A01 T01550064  RH  055%=      5-min Rain = 0
KQU1 180955Z 21015KT 16/07 A2978 RMK A01 T01550065  RH  055%=      5-min Rain = 0
KQU1 180956Z 21016KT 16/07 A2978 RMK A01 T01550065  RH  055%=      5-min Rain = 0
KQU1 180957Z 20015KT 16/07 A2978 RMK A01 T01550065  RH  055%=      5-min Rain = 0
KQU1 180958Z 21014G19KT 16/07 A2978 RMK A01 T01550065  RH  055%=      5-min Rain = 0
KQU1 180959Z 21015G20KT 16/07 A2977 RMK A01 T01550066  RH  055%=      5-min Rain = 0
KQU1 181000Z 21018KT 16/07 A2978 RMK A01 T01550068  RH  056%=      5-min Rain = 0
KQU1 181001Z 21016KT 16/07 A2977 RMK A01 T01560068  RH  056%=      5-min Rain = 0
KQU1 181002Z 21017KT 16/07 A2977 RMK A01 T01570068  RH  056%=      5-min Rain = 0
KQU1 181003Z 21016KT 16/07 A2977 RMK A01 T01570069  RH  056%=      5-min Rain = 0
KQU1 181004Z 21015KT 16/07 A2977 RMK A01 T01570070  RH  056%=      5-min Rain = 0
KQU1 181005Z 21016KT 16/07 A2977 RMK A01 T01570070  RH  056%=      5-min Rain = 0
KQU1 181006Z 21016KT 16/07 A2977 RMK A01 T01570070  RH  056%=      5-min Rain = 0
KQU1 181007Z 21018KT 16/07 A2977 RMK A01 T01580071  RH  056%=      5-min Rain = 0
KQU1 181008Z 21016KT 16/07 A2977 RMK A01 T01580071  RH  056%=      5-min Rain = 0
KQU1 181009Z 21015G20KT 16/07 A2977 RMK A01 T01580071  RH  056%=      5-min Rain = 0
KQU1 181010Z 21016KT 16/07 A2977 RMK A01 T01580071  RH  056%=      5-min Rain = 0
KQU1 181011Z 21016KT 16/07 A2977 RMK A01 T01570071  RH  056%=      5-min Rain = 0
KQU1 181012Z 21014KT 16/07 A2977 RMK A01 T01570071  RH  056%=      5-min Rain = 0
KQU1 181013Z 21014KT 16/07 A2977 RMK A01 T01570071  RH  057%=      5-min Rain = 0
KQU1 181014Z 21017KT 16/07 A2977 RMK A01 T01570072  RH  057%=      5-min Rain = 0
KQU1 181015Z 21015KT 16/07 A2977 RMK A01 T01570072  RH  057%=      5-min Rain = 0
KQU1 181016Z 21016KT 16/07 A2977 RMK A01 T01570072  RH  057%=      5-min Rain = 0
KQU1 181017Z 21017KT 16/07 A2977 RMK A01 T01570073  RH  057%=      5-min Rain = 0
KQU1 181018Z 21018KT 16/07 A2977 RMK A01 T01570073  RH  057%=      5-min Rain = 0
KQU1 181019Z 21018KT 16/07 A2977 RMK A01 T01580073  RH  057%=      5-min Rain = 0
KQU1 181020Z 21018KT 16/07 A2977 RMK A01 T01580072  RH  057%=      5-min Rain = 0
KQU1 181021Z 21016KT 16/07 A2977 RMK A01 T01570073  RH  057%=      5-min Rain = 0
KQU1 181022Z 21015KT 16/07 A2977 RMK A01 T01570073  RH  058%=      5-min Rain = 0
KQU1 181023Z 21018KT 16/08 A2977 RMK A01 T01570076  RH  059%=      5-min Rain = 0
KQU1 181024Z 21019KT 16/08 A2977 RMK A01 T01590078  RH  059%=      5-min Rain = 0
KQU1 181025Z 21019KT 16/08 A2977 RMK A01 T01600077  RH  058%=      5-min Rain = 0
KQU1 181026Z 21017KT 16/08 A2977 RMK A01 T01600077  RH  058%=      5-min Rain = 0
KQU1 181027Z 21015KT 16/08 A2977 RMK A01 T01600077  RH  058%=      5-min Rain = 0
KQU1 181028Z 21015KT 16/08 A2977 RMK A01 T01590076  RH  058%=      5-min Rain = 0
KQU1 181029Z 21017KT 16/08 A2977 RMK A01 T01590076  RH  058%=      5-min Rain = 0
KQU1 181030Z 21017G22KT 16/08 A2977 RMK A01 T01590077  RH  058%=      5-min Rain = 0
KQU1 181031Z 21015G20KT 16/08 A2977 RMK A01 T01580076  RH  058%=      5-min Rain = 0
KQU1 181032Z 21017KT 16/08 A2977 RMK A01 T01580076  RH  058%=      5-min Rain = 0
KQU1 181033Z 21017KT 16/08 A2977 RMK A01 T01570076  RH  058%=      5-min Rain = 0
KQU1 181034Z 21016KT 16/08 A2977 RMK A01 T01570077  RH  059%=      5-min Rain = 0
KQU1 181035Z 21015KT 16/08 A2977 RMK A01 T01570077  RH  059%=      5-min Rain = 0
KQU1 181036Z 20016KT 16/08 A2977 RMK A01 T01570077  RH  059%=      5-min Rain = 0
KQU1 181037Z 21016KT 16/08 A2977 RMK A01 T01570077  RH  059%=      5-min Rain = 0
KQU1 181038Z 21015KT 16/08 A2977 RMK A01 T01560077  RH  059%=      5-min Rain = 0
KQU1 181039Z 21016KT 16/08 A2977 RMK A01 T01560077  RH  059%=      5-min Rain = 0
KQU1 181040Z 21016KT 16/08 A2977 RMK A01 T01560077  RH  059%=      5-min Rain = 0
KQU1 181041Z 21015KT 16/08 A2977 RMK A01 T01560077  RH  059%=      5-min Rain = 0
KQU1 181042Z 21015G20KT 16/08 A2977 RMK A01 T01560077  RH  059%=      5-min Rain = 0
KQU1 181043Z 21017KT 16/08 A2977 RMK A01 T01560077  RH  059%=      5-min Rain = 0
KQU1 181044Z 21017KT 16/08 A2977 RMK A01 T01570078  RH  059%=      5-min Rain = 0
KQU1 181045Z 21017KT 16/08 A2977 RMK A01 T01570077  RH  059%=      5-min Rain = 0
KQU1 181046Z 21016KT 16/08 A2977 RMK A01 T01560077  RH  059%=      5-min Rain = 0
KQU1 181047Z 22017KT 16/08 A2978 RMK A01 T01560077  RH  059%=      5-min Rain = 0
KQU1 181048Z 21017KT 16/08 A2978 RMK A01 T01560077  RH  059%=      5-min Rain = 0
KQU1 181049Z 21016KT 16/08 A2978 RMK A01 T01550077  RH  060%=      5-min Rain = 0
KQU1 181050Z 21015KT 16/08 A2978 RMK A01 T01550077  RH  060%=      5-min Rain = 0
KQU1 181051Z 22016KT 16/08 A2978 RMK A01 T01550077  RH  060%=      5-min Rain = 0
KQU1 181052Z 21017KT 15/08 A2978 RMK A01 T01540077  RH  060%=      5-min Rain = 0
KQU1 181053Z 22019KT 15/08 A2978 RMK A01 T01540077  RH  060%=      5-min Rain = 0
KQU1 181054Z 21018KT 15/08 A2978 RMK A01 T01540077  RH  060%=      5-min Rain = 0
KQU1 181055Z 21018KT 15/08 A2977 RMK A01 T01540076  RH  060%=      5-min Rain = 0
KQU1 181056Z 21017KT 15/08 A2978 RMK A01 T01530076  RH  060%=      5-min Rain = 0
KQU1 181057Z 21018G23KT 15/08 A2978 RMK A01 T01530076  RH  060%=      5-min Rain = 0
KQU1 181058Z 21017G22KT 15/08 A2978 RMK A01 T01530076  RH  060%=      5-min Rain = 0
KQU1 181059Z 21017KT 15/08 A2978 RMK A01 T01520076  RH  060%=      5-min Rain = 0
KQU1 181100Z 21017KT 15/08 A2978 RMK A01 T01520077  RH  061%=      5-min Rain = 0
KQU1 181101Z 21017KT 15/08 A2978 RMK A01 T01520078  RH  061%=      5-min Rain = 0
KQU1 181102Z 21015KT 15/08 A2977 RMK A01 T01520078  RH  061%=      5-min Rain = 0
KQU1 181103Z 22018KT 15/08 A2978 RMK A01 T01520079  RH  062%=      5-min Rain = 0
KQU1 181104Z 21017KT 15/08 A2977 RMK A01 T01530080  RH  062%=      5-min Rain = 0
KQU1 181105Z 21016KT 15/08 A2978 RMK A01 T01530080  RH  062%=      5-min Rain = 0
KQU1 181106Z 22016G22KT 15/08 A2977 RMK A01 T01530079  RH  062%=      5-min Rain = 0
KQU1 181107Z 21015KT 15/08 A2977 RMK A01 T01530080  RH  062%=      5-min Rain = 0
KQU1 181108Z 22015KT 15/08 A2977 RMK A01 T01520079  RH  062%=      5-min Rain = 0
KQU1 181109Z 21017KT 15/08 A2977 RMK A01 T01520079  RH  062%=      5-min Rain = 0
KQU1 181110Z 22015KT 15/08 A2977 RMK A01 T01510079  RH  062%=      5-min Rain = 0
KQU1 181111Z 21016KT 15/08 A2977 RMK A01 T01510080  RH  062%=      5-min Rain = 0
KQU1 181112Z 22015KT 15/08 A2977 RMK A01 T01510080  RH  062%=      5-min Rain = 0
KQU1 181113Z 21016KT 15/08 A2977 RMK A01 T01510081  RH  063%=      5-min Rain = 0
KQU1 181114Z 22017KT 15/08 A2977 RMK A01 T01510081  RH  063%=      5-min Rain = 0
KQU1 181115Z 22017KT 15/08 A2977 RMK A01 T01510082  RH  063%=      5-min Rain = 0
KQU1 181116Z 22017G22KT 15/08 A2977 RMK A01 T01510082  RH  063%=      5-min Rain = 0
KQU1 181117Z 22018KT 15/08 A2977 RMK A01 T01520084  RH  064%=      5-min Rain = 0
KQU1 181118Z 21019KT 15/08 A2977 RMK A01 T01520084  RH  064%=      5-min Rain = 0
KQU1 181119Z 22019KT 15/08 A2977 RMK A01 T01530084  RH  063%=      5-min Rain = 0
KQU1 181120Z 22015KT 15/08 A2977 RMK A01 T01530084  RH  063%=      5-min Rain = 0
KQU1 181121Z 22017KT 15/08 A2977 RMK A01 T01530084  RH  064%=      5-min Rain = 0
KQU1 181122Z 22018KT 15/08 A2977 RMK A01 T01530084  RH  064%=      5-min Rain = 0
KQU1 181123Z 22019G24KT 15/09 A2977 RMK A01 T01530085  RH  064%=      5-min Rain = 0
KQU1 181124Z 22020KT 15/09 A2977 RMK A01 T01530085  RH  064%=      5-min Rain = 0
KQU1 181125Z 22021KT 15/09 A2977 RMK A01 T01530085  RH  064%=      5-min Rain = 0
KQU1 181126Z 22017KT 15/09 A2977 RMK A01 T01530086  RH  064%=      5-min Rain = 0
KQU1 181127Z 22018KT 15/09 A2977 RMK A01 T01530086  RH  064%=      5-min Rain = 0
KQU1 181128Z 22018G23KT 15/09 A2977 RMK A01 T01530086  RH  064%=      5-min Rain = 0
KQU1 181129Z 22019KT 15/09 A2977 RMK A01 T01530087  RH  064%=      5-min Rain = 0
KQU1 181130Z 22021KT 15/09 A2977 RMK A01 T01530088  RH  065%=      5-min Rain = 0
KQU1 181131Z 22019KT 15/09 A2977 RMK A01 T01530088  RH  065%=      5-min Rain = 0
KQU1 181132Z 21020KT 15/09 A2977 RMK A01 T01530088  RH  065%=      5-min Rain = 0
KQU1 181133Z 22016KT 15/09 A2977 RMK A01 T01530088  RH  065%=      5-min Rain = 0
KQU1 181134Z 21016KT 15/09 A2977 RMK A01 T01530088  RH  065%=      5-min Rain = 0
KQU1 181135Z 21020KT 15/09 A2977 RMK A01 T01530090  RH  066%=      5-min Rain = 0
KQU1 181136Z 22019G25KT 15/09 A2977 RMK A01 T01530090  RH  066%=      5-min Rain = 0
KQU1 181137Z 22018KT 15/09 A2977 RMK A01 T01540090  RH  066%=      5-min Rain = 0
KQU1 181138Z 22019G25KT 15/09 A2977 RMK A01 T01530090  RH  066%=      5-min Rain = 0
KQU1 181139Z 22020G25KT 15/09 A2977 RMK A01 T01540091  RH  066%=      5-min Rain = 0
KQU1 181140Z 22020KT 15/09 A2977 RMK A01 T01540091  RH  066%=      5-min Rain = 0
KQU1 181141Z 21019KT 15/09 A2977 RMK A01 T01540091  RH  066%=      5-min Rain = 0
KQU1 181142Z 22018G23KT 15/09 A2977 RMK A01 T01540091  RH  066%=      5-min Rain = 0
KQU1 181143Z 22020KT 15/09 A2977 RMK A01 T01540092  RH  066%=      5-min Rain = 0
KQU1 181144Z 22020G29KT 15/09 A2977 RMK A01 T01540092  RH  067%=      5-min Rain = 0
KQU1 181145Z 22021G27KT 16/09 A2977 RMK A01 T01550093  RH  066%=      5-min Rain = 0
KQU1 181146Z 21017G22KT 16/09 A2977 RMK A01 T01550092  RH  066%=      5-min Rain = 0
KQU1 181147Z 22021KT 15/09 A2977 RMK A01 T01540093  RH  067%=      5-min Rain = 0
KQU1 181148Z 21019KT 16/09 A2977 RMK A01 T01550093  RH  067%=      5-min Rain = 0
KQU1 181149Z 22021KT 16/09 A2977 RMK A01 T01550094  RH  067%=      5-min Rain = 0
KQU1 181150Z 22019G24KT 16/09 A2977 RMK A01 T01550093  RH  067%=      5-min Rain = 0
KQU1 181151Z 22019KT 16/09 A2977 RMK A01 T01550094  RH  067%=      5-min Rain = 0
KQU1 181152Z 21019G24KT 16/09 A2977 RMK A01 T01550094  RH  067%=      5-min Rain = 0
KQU1 181153Z 22022KT 16/10 A2977 RMK A01 T01550095  RH  067%=      5-min Rain = 0
KQU1 181154Z 22021G26KT 16/10 A2977 RMK A01 T01560095  RH  067%=      5-min Rain = 0
KQU1 181155Z 22020KT 16/10 A2977 RMK A01 T01560095  RH  067%=      5-min Rain = 0
KQU1 181156Z 22021KT 16/10 A2977 RMK A01 T01560095  RH  067%=      5-min Rain = 0
KQU1 181157Z 22020G25KT 16/10 A2977 RMK A01 T01560095  RH  067%=      5-min Rain = 0
KQU1 181158Z 22019G24KT 16/10 A2977 RMK A01 T01560095  RH  067%=      5-min Rain = 0
KQU1 181159Z 22021KT 16/10 A2977 RMK A01 T01550096  RH  068%=      5-min Rain = 0
KQU1 181200Z 22022KT 16/10 A2977 RMK A01 T01560096  RH  067%=      5-min Rain = 0
KQU1 181201Z 22019KT 16/10 A2977 RMK A01 T01550095  RH  067%=      5-min Rain = 0
KQU1 181202Z 21021KT 16/10 A2977 RMK A01 T01550095  RH  067%=      5-min Rain = 0
KQU1 181203Z 22018KT 16/10 A2977 RMK A01 T01550095  RH  067%=      5-min Rain = 0
KQU1 181204Z 21019KT 16/10 A2977 RMK A01 T01550095  RH  068%=      5-min Rain = 0
KQU1 181205Z 22020KT 15/10 A2977 RMK A01 T01540095  RH  068%=      5-min Rain = 0
KQU1 181206Z 22019KT 15/10 A2977 RMK A01 T01540095  RH  068%=      5-min Rain = 0
KQU1 181207Z 21017KT 15/10 A2977 RMK A01 T01540095  RH  068%=      5-min Rain = 0
KQU1 181208Z 21020KT 15/10 A2977 RMK A01 T01530095  RH  068%=      5-min Rain = 0
KQU1 181209Z 21017G23KT 15/10 A2977 RMK A01 T01530095  RH  068%=      5-min Rain = 0
KQU1 181210Z 21018KT 15/10 A2977 RMK A01 T01530096  RH  068%=      5-min Rain = 0
KQU1 181211Z 21018KT 15/10 A2977 RMK A01 T01530096  RH  069%=      5-min Rain = 0
KQU1 181212Z 21020KT 15/10 A2977 RMK A01 T01530095  RH  068%=      5-min Rain = 0
KQU1 181213Z 21019KT 15/10 A2977 RMK A01 T01530096  RH  069%=      5-min Rain = 0
KQU1 181214Z 21018KT 15/10 A2977 RMK A01 T01530096  RH  069%=      5-min Rain = 0
KQU1 181215Z 21017G23KT 15/10 A2977 RMK A01 T01520095  RH  069%=      5-min Rain = 0
KQU1 181216Z 22019KT 15/10 A2977 RMK A01 T01520096  RH  069%=      5-min Rain = 0
KQU1 181217Z 21019G24KT 15/10 A2977 RMK A01 T01520097  RH  069%=      5-min Rain = 0
KQU1 181218Z 21019G24KT 15/10 A2977 RMK A01 T01530097  RH  069%=      5-min Rain = 0
KQU1 181219Z 22020KT 15/10 A2977 RMK A01 T01530097  RH  069%=      5-min Rain = 0
KQU1 181220Z 22019KT 15/10 A2977 RMK A01 T01540097  RH  069%=      5-min Rain = 0
KQU1 181221Z 22024G30KT 15/10 A2977 RMK A01 T01540098  RH  069%=      5-min Rain = 0
KQU1 181222Z 22022KT 16/10 A2977 RMK A01 T01550099  RH  069%=      5-min Rain = 0
KQU1 181223Z 22021KT 16/10 A2977 RMK A01 T01560098  RH  068%=      5-min Rain = 0
KQU1 181224Z 22022G28KT 16/10 A2977 RMK A01 T01550098  RH  069%=      5-min Rain = 0
KQU1 181225Z 22022KT 16/10 A2977 RMK A01 T01560098  RH  068%=      5-min Rain = 0
KQU1 181226Z 22021KT 16/10 A2977 RMK A01 T01560098  RH  068%=      5-min Rain = 0
KQU1 181227Z 22023G29KT 16/10 A2977 RMK A01 T01560099  RH  069%=      5-min Rain = 0
KQU1 181228Z 22019KT 16/10 A2977 RMK A01 T01560098  RH  068%=      5-min Rain = 0
KQU1 181229Z 22018KT 16/10 A2977 RMK A01 T01550097  RH  069%=      5-min Rain = 0
KQU1 181230Z 22016KT 15/10 A2977 RMK A01 T01540097  RH  069%=      5-min Rain = 0
KQU1 181231Z 21018KT 15/10 A2977 RMK A01 T01530097  RH  069%=      5-min Rain = 0
KQU1 181232Z 22019G25KT 15/10 A2977 RMK A01 T01520097  RH  070%=      5-min Rain = 0
KQU1 181233Z 22020KT 15/10 A2977 RMK A01 T01520097  RH  070%=      5-min Rain = 0
KQU1 181234Z 22019KT 15/10 A2977 RMK A01 T01520097  RH  070%=      5-min Rain = 0
KQU1 181235Z 22021KT 15/10 A2976 RMK A01 T01520097  RH  070%=      5-min Rain = 0
KQU1 181236Z 22019KT 15/10 A2976 RMK A01 T01520097  RH  070%=      5-min Rain = 0
KQU1 181237Z 22020KT 15/10 A2976 RMK A01 T01520097  RH  070%=      5-min Rain = 0
KQU1 181238Z 22021G26KT 15/10 A2976 RMK A01 T01520098  RH  070%=      5-min Rain = 0
KQU1 181239Z 22021G26KT 15/10 A2976 RMK A01 T01530098  RH  070%=      5-min Rain = 0
KQU1 181240Z 22020KT 15/10 A2976 RMK A01 T01530098  RH  070%=      5-min Rain = 0
KQU1 181241Z 22022KT 15/10 A2976 RMK A01 T01520098  RH  070%=      5-min Rain = 0
KQU1 181242Z 22020G26KT 15/10 A2976 RMK A01 T01530098  RH  070%=      5-min Rain = 0
KQU1 181243Z 21019KT 15/10 A2976 RMK A01 T01530098  RH  070%=      5-min Rain = 0
KQU1 181244Z 21020KT 15/10 A2976 RMK A01 T01520098  RH  070%=      5-min Rain = 0
KQU1 181245Z 22021KT 15/10 A2976 RMK A01 T01520098  RH  070%=      5-min Rain = 0
KQU1 181246Z 22020KT 15/10 A2976 RMK A01 T01520098  RH  070%=      5-min Rain = 0
KQU1 181247Z 22021KT 15/10 A2976 RMK A01 T01520098  RH  070%=      5-min Rain = 0
KQU1 181248Z 22021KT 15/10 A2976 RMK A01 T01520098  RH  070%=      5-min Rain = 0
KQU1 181249Z 22019KT 15/10 A2976 RMK A01 T01520098  RH  070%=      5-min Rain = 0
KQU1 181250Z 21020KT 15/10 A2976 RMK A01 T01520098  RH  070%=      5-min Rain = 0
KQU1 181251Z 21018KT 15/10 A2976 RMK A01 T01510098  RH  070%=      5-min Rain = 0
KQU1 181252Z 21020G25KT 15/10 A2976 RMK A01 T01510098  RH  070%=      5-min Rain = 0
KQU1 181253Z 21018G23KT 15/10 A2976 RMK A01 T01510098  RH  071%=      5-min Rain = 0
KQU1 181254Z 21021KT 15/10 A2976 RMK A01 T01510098  RH  071%=      5-min Rain = 0
KQU1 181255Z 21019KT 15/10 A2976 RMK A01 T01510098  RH  071%=      5-min Rain = 0
KQU1 181256Z 21019KT 15/10 A2976 RMK A01 T01510098  RH  071%=      5-min Rain = 0
KQU1 181257Z 21018KT 15/10 A2976 RMK A01 T01510098  RH  071%=      5-min Rain = 0
KQU1 181258Z 21020KT 15/10 A2976 RMK A01 T01510098  RH  071%=      5-min Rain = 0
KQU1 181259Z 21020KT 15/10 A2976 RMK A01 T01510098  RH  071%=      5-min Rain = 0
KQU1 181300Z 22021KT 15/10 A2976 RMK A01 T01510098  RH  071%=      5-min Rain = 0
KQU1 181301Z 22019KT 15/10 A2976 RMK A01 T01510098  RH  070%=      5-min Rain = 0
KQU1 181302Z 21019G24KT 15/10 A2976 RMK A01 T01510098  RH  071%=      5-min Rain = 0
KQU1 181303Z 22020KT 15/10 A2975 RMK A01 T01510098  RH  071%=      5-min Rain = 0
KQU1 181304Z 21020KT 15/10 A2975 RMK A01 T01520098  RH  070%=      5-min Rain = 0
KQU1 181305Z 21020KT 15/10 A2975 RMK A01 T01520098  RH  070%=      5-min Rain = 0
KQU1 181306Z 21021KT 15/10 A2975 RMK A01 T01520098  RH  070%=      5-min Rain = 0
KQU1 181307Z 22022G27KT 15/10 A2975 RMK A01 T01530098  RH  070%=      5-min Rain = 0
KQU1 181308Z 22021G26KT 15/10 A2975 RMK A01 T01530098  RH  070%=      5-min Rain = 0
KQU1 181309Z 22022KT 15/10 A2975 RMK A01 T01540099  RH  069%=      5-min Rain = 0
KQU1 181310Z 21020KT 16/10 A2975 RMK A01 T01550099  RH  069%=      5-min Rain = 0
KQU1 181311Z 22022G30KT 16/10 A2975 RMK A01 T01550099  RH  069%=      5-min Rain = 0
KQU1 181312Z 21022KT 16/10 A2975 RMK A01 T01560099  RH  069%=      5-min Rain = 0
KQU1 181313Z 22023KT 16/10 A2975 RMK A01 T01570099  RH  068%=      5-min Rain = 0
KQU1 181314Z 22023KT 16/10 A2975 RMK A01 T01580099  RH  068%=      5-min Rain = 0
KQU1 181315Z 22024KT 16/10 A2975 RMK A01 T01590099  RH  068%=      5-min Rain = 0
KQU1 181316Z 21020KT 16/10 A2975 RMK A01 T01590099  RH  067%=      5-min Rain = 0
KQU1 181317Z 22019KT 16/10 A2975 RMK A01 T01590099  RH  067%=      5-min Rain = 0
KQU1 181318Z 22023KT 16/10 A2975 RMK A01 T01590099  RH  067%=      5-min Rain = 0
KQU1 181319Z 22021G26KT 16/10 A2975 RMK A01 T01600099  RH  067%=      5-min Rain = 0
KQU1 181320Z 22019KT 16/10 A2975 RMK A01 T01600099  RH  067%=      5-min Rain = 0
KQU1 181321Z 22022G27KT 16/10 A2975 RMK A01 T01610099  RH  067%=      5-min Rain = 0
KQU1 181322Z 22024KT 16/10 A2975 RMK A01 T01610099  RH  067%=      5-min Rain = 0
KQU1 181323Z 22022KT 16/10 A2975 RMK A01 T01620100  RH  067%=      5-min Rain = 0
KQU1 181324Z 22018KT 16/10 A2976 RMK A01 T01620100  RH  066%=      5-min Rain = 0
KQU1 181325Z 22023KT 16/10 A2975 RMK A01 T01620100  RH  066%=      5-min Rain = 0
KQU1 181326Z 21022KT 16/10 A2975 RMK A01 T01630100  RH  066%=      5-min Rain = 0
KQU1 181327Z 22020KT 16/10 A2976 RMK A01 T01630100  RH  066%=      5-min Rain = 0
KQU1 181328Z 22022KT 16/10 A2976 RMK A01 T01630100  RH  066%=      5-min Rain = 0
KQU1 181329Z 22024KT 16/10 A2975 RMK A01 T01640100  RH  066%=      5-min Rain = 0
KQU1 181330Z 21022KT 16/10 A2975 RMK A01 T01640100  RH  066%=      5-min Rain = 0
KQU1 181331Z 22020KT 17/10 A2975 RMK A01 T01650100  RH  066%=      5-min Rain = 0
KQU1 181332Z 21020KT 17/10 A2975 RMK A01 T01650100  RH  066%=      5-min Rain = 0
KQU1 181333Z 22020G26KT 17/10 A2975 RMK A01 T01650100  RH  066%=      5-min Rain = 0
KQU1 181334Z 22020KT 17/10 A2975 RMK A01 T01650100  RH  065%=      5-min Rain = 0
KQU1 181335Z 22021KT 17/10 A2975 RMK A01 T01650100  RH  065%=      5-min Rain = 0
KQU1 181336Z 22021KT 17/10 A2975 RMK A01 T01660101  RH  065%=      5-min Rain = 0
KQU1 181337Z 21020KT 17/10 A2975 RMK A01 T01660100  RH  065%=      5-min Rain = 0
KQU1 181338Z 22021G26KT 17/10 A2976 RMK A01 T01660101  RH  065%=      5-min Rain = 0
KQU1 181339Z 21024G29KT 17/10 A2975 RMK A01 T01660101  RH  065%=      5-min Rain = 0
KQU1 181340Z 21021KT 17/10 A2976 RMK A01 T01670101  RH  065%=      5-min Rain = 0
KQU1 181341Z 21023KT 17/10 A2975 RMK A01 T01670101  RH  065%=      5-min Rain = 0
KQU1 181342Z 21019KT 17/10 A2976 RMK A01 T01670101  RH  065%=      5-min Rain = 0
KQU1 181343Z 21021G26KT 17/10 A2976 RMK A01 T01670101  RH  065%=      5-min Rain = 0
KQU1 181344Z 21021KT 17/10 A2976 RMK A01 T01680101  RH  065%=      5-min Rain = 0
KQU1 181345Z 21020KT 17/10 A2976 RMK A01 T01680101  RH  065%=      5-min Rain = 0
KQU1 181346Z 21021KT 17/10 A2976 RMK A01 T01680101  RH  065%=      5-min Rain = 0
KQU1 181347Z 22019KT 17/10 A2976 RMK A01 T01680102  RH  065%=      5-min Rain = 0
KQU1 181348Z 21018KT 17/10 A2976 RMK A01 T01690102  RH  065%=      5-min Rain = 0
KQU1 181349Z 21018KT 17/10 A2976 RMK A01 T01690102  RH  065%=      5-min Rain = 0
KQU1 181350Z 21020KT 17/10 A2976 RMK A01 T01690102  RH  064%=      5-min Rain = 0
KQU1 181351Z 21019KT 17/10 A2976 RMK A01 T01690102  RH  064%=      5-min Rain = 0
KQU1 181352Z 22018KT 17/10 A2976 RMK A01 T01700102  RH  064%=      5-min Rain = 0
KQU1 181353Z 21018G23KT 17/10 A2976 RMK A01 T01700102  RH  064%=      5-min Rain = 0
KQU1 181354Z 21018KT 17/10 A2976 RMK A01 T01710102  RH  064%=      5-min Rain = 0
KQU1 181355Z 21020KT 17/10 A2976 RMK A01 T01710102  RH  064%=      5-min Rain = 0
KQU1 181356Z 21019KT 17/10 A2976 RMK A01 T01710103  RH  064%=      5-min Rain = 0
KQU1 181357Z 21018KT 17/10 A2976 RMK A01 T01720103  RH  064%=      5-min Rain = 0
KQU1 181358Z 21016KT 17/10 A2976 RMK A01 T01720103  RH  064%=      5-min Rain = 0
KQU1 181359Z 21018KT 17/10 A2976 RMK A01 T01730103  RH  064%=      5-min Rain = 0
KQU1 181400Z 21016G23KT 17/10 A2976 RMK A01 T01730104  RH  064%=      5-min Rain = 0
KQU1 181401Z 21018KT 17/10 A2976 RMK A01 T01740103  RH  063%=      5-min Rain = 0
KQU1 181402Z 21016KT 17/10 A2976 RMK A01 T01740104  RH  063%=      5-min Rain = 0
KQU1 181403Z 21017KT 18/10 A2976 RMK A01 T01750104  RH  063%=      5-min Rain = 0
KQU1 181404Z 21018KT 18/10 A2976 RMK A01 T01750104  RH  063%=      5-min Rain = 0
KQU1 181405Z 22017KT 18/10 A2976 RMK A01 T01750104  RH  063%=      5-min Rain = 0
KQU1 181406Z 21017KT 18/10 A2976 RMK A01 T01760104  RH  063%=      5-min Rain = 0
KQU1 181407Z 21018KT 18/10 A2976 RMK A01 T01760104  RH  063%=      5-min Rain = 0
KQU1 181408Z 21016G21KT 18/10 A2977 RMK A01 T01760104  RH  063%=      5-min Rain = 0
KQU1 181409Z 21017KT 18/10 A2977 RMK A01 T01770104  RH  062%=      5-min Rain = 0
KQU1 181410Z 21018KT 18/10 A2977 RMK A01 T01770104  RH  062%=      5-min Rain = 0
KQU1 181411Z 21016KT 18/11 A2977 RMK A01 T01780105  RH  062%=      5-min Rain = 0
KQU1 181412Z 21014KT 18/11 A2977 RMK A01 T01780105  RH  062%=      5-min Rain = 0
KQU1 181413Z 21017G22KT 18/10 A2977 RMK A01 T01790104  RH  062%=      5-min Rain = 0
KQU1 181414Z 21016KT 18/11 A2977 RMK A01 T01790105  RH  062%=      5-min Rain = 0
KQU1 181415Z 20017KT 18/10 A2977 RMK A01 T01800104  RH  061%=      5-min Rain = 0
KQU1 181416Z 21017KT 18/11 A2977 RMK A01 T01800105  RH  061%=      5-min Rain = 0
KQU1 181417Z 20019KT 18/10 A2977 RMK A01 T01800104  RH  061%=      5-min Rain = 0
KQU1 181418Z 21019KT 18/10 A2977 RMK A01 T01800104  RH  061%=      5-min Rain = 0
KQU1 181419Z 21018KT 18/10 A2977 RMK A01 T01800104  RH  061%=      5-min Rain = 0
KQU1 181420Z 21017KT 18/11 A2977 RMK A01 T01800105  RH  061%=      5-min Rain = 0
KQU1 181421Z 21016KT 18/11 A2977 RMK A01 T01810105  RH  061%=      5-min Rain = 0
KQU1 181422Z 21016KT 18/11 A2977 RMK A01 T01810105  RH  061%=      5-min Rain = 0
KQU1 181423Z 21017G22KT 18/11 A2977 RMK A01 T01820105  RH  061%=      5-min Rain = 0
KQU1 181424Z 21015KT 18/11 A2977 RMK A01 T01820106  RH  061%=      5-min Rain = 0
KQU1 181425Z 21017G22KT 18/11 A2977 RMK A01 T01830105  RH  061%=      5-min Rain = 0
KQU1 181426Z 20019KT 18/11 A2976 RMK A01 T01830105  RH  060%=      5-min Rain = 0
KQU1 181427Z 21021KT 18/11 A2976 RMK A01 T01830105  RH  060%=      5-min Rain = 0
KQU1 181428Z 21017KT 18/11 A2976 RMK A01 T01830106  RH  060%=      5-min Rain = 0
KQU1 181429Z 21020KT 18/11 A2976 RMK A01 T01840105  RH  060%=      5-min Rain = 0
KQU1 181430Z 21017KT 18/11 A2976 RMK A01 T01840105  RH  060%=      5-min Rain = 0
KQU1 181431Z 21018KT 19/11 A2976 RMK A01 T01850106  RH  060%=      5-min Rain = 0
KQU1 181432Z 21020G25KT 19/11 A2976 RMK A01 T01860106  RH  059%=      5-min Rain = 0
KQU1 181433Z 21022KT 19/10 A2976 RMK A01 T01860104  RH  059%=      5-min Rain = 0
KQU1 181434Z 21020KT 19/11 A2976 RMK A01 T01850105  RH  059%=      5-min Rain = 0
KQU1 181435Z 22017KT 19/11 A2976 RMK A01 T01850106  RH  060%=      5-min Rain = 0
KQU1 181436Z 22019KT 19/11 A2976 RMK A01 T01860105  RH  059%=      5-min Rain = 0
KQU1 181437Z 21017KT 19/11 A2976 RMK A01 T01870106  RH  059%=      5-min Rain = 0
KQU1 181438Z 22017KT 19/11 A2976 RMK A01 T01880106  RH  059%=      5-min Rain = 0
KQU1 181439Z 21017KT 19/11 A2976 RMK A01 T01890107  RH  059%=      5-min Rain = 0
KQU1 181440Z 21015KT 19/11 A2976 RMK A01 T01890107  RH  059%=      5-min Rain = 0
KQU1 181441Z 21020KT 19/11 A2976 RMK A01 T01900106  RH  058%=      5-min Rain = 0
KQU1 181442Z 21021KT 19/11 A2976 RMK A01 T01890105  RH  058%=      5-min Rain = 0
KQU1 181443Z 21020KT 19/11 A2976 RMK A01 T01890105  RH  058%=      5-min Rain = 0
KQU1 181444Z 22020KT 19/11 A2976 RMK A01 T01890105  RH  058%=      5-min Rain = 0
KQU1 181445Z 22017G22KT 19/11 A2976 RMK A01 T01890106  RH  058%=      5-min Rain = 0
KQU1 181446Z 21016KT 19/11 A2976 RMK A01 T01900107  RH  059%=      5-min Rain = 0
KQU1 181447Z 21020KT 19/11 A2976 RMK A01 T01900105  RH  058%=      5-min Rain = 0
KQU1 181448Z 21019KT 19/10 A2976 RMK A01 T01900104  RH  058%=      5-min Rain = 0
KQU1 181449Z 21017G22KT 19/11 A2976 RMK A01 T01900106  RH  058%=      5-min Rain = 0
KQU1 181450Z 22017KT 19/11 A2976 RMK A01 T01900105  RH  058%=      5-min Rain = 0
KQU1 181451Z 22018G23KT 19/11 A2976 RMK A01 T01900106  RH  058%=      5-min Rain = 0
KQU1 181452Z 22018KT 19/11 A2976 RMK A01 T01900106  RH  058%=      5-min Rain = 0
KQU1 181453Z 21017KT 19/11 A2977 RMK A01 T01900105  RH  058%=      5-min Rain = 0
KQU1 181454Z 21018KT 19/11 A2977 RMK A01 T01910105  RH  058%=      5-min Rain = 0
KQU1 181455Z 22020KT 19/10 A2977 RMK A01 T01900104  RH  057%=      5-min Rain = 0
KQU1 181456Z 22017G23KT 19/11 A2977 RMK A01 T01910105  RH  058%=      5-min Rain = 0
KQU1 181457Z 22019KT 19/11 A2977 RMK A01 T01910105  RH  057%=      5-min Rain = 0
KQU1 181458Z 22018G23KT 19/10 A2976 RMK A01 T01910104  RH  057%=      5-min Rain = 0
KQU1 181459Z 21016KT 19/11 A2977 RMK A01 T01920106  RH  058%=      5-min Rain = 0
KQU1 181500Z 21015KT 19/11 A2977 RMK A01 T01930106  RH  057%=      5-min Rain = 0
KQU1 181501Z 21015KT 19/11 A2977 RMK A01 T01930105  RH  057%=      5-min Rain = 0
KQU1 181502Z 21014KT 19/11 A2977 RMK A01 T01930106  RH  057%=      5-min Rain = 0
KQU1 181503Z 21015KT 19/11 A2977 RMK A01 T01940106  RH  057%=      5-min Rain = 0
KQU1 181504Z 21013KT 19/11 A2977 RMK A01 T01940107  RH  057%=      5-min Rain = 0
KQU1 181505Z 21015KT 20/11 A2977 RMK A01 T01960107  RH  056%=      5-min Rain = 0
KQU1 181506Z 22015KT 20/11 A2977 RMK A01 T01970106  RH  056%=      5-min Rain = 0
KQU1 181507Z 22013KT 20/11 A2977 RMK A01 T01970105  RH  056%=      5-min Rain = 0
KQU1 181508Z 22016KT 20/11 A2977 RMK A01 T01970105  RH  055%=      5-min Rain = 0
KQU1 181509Z 21014KT 20/11 A2977 RMK A01 T01970105  RH  055%=      5-min Rain = 0
KQU1 181510Z 22012G17KT 20/11 A2977 RMK A01 T01980106  RH  056%=      5-min Rain = 0
KQU1 181511Z 21012KT 20/11 A2977 RMK A01 T01980105  RH  055%=      5-min Rain = 0
KQU1 181512Z 21013KT 20/11 A2977 RMK A01 T01990106  RH  055%=      5-min Rain = 0
KQU1 181513Z 22011KT 20/11 A2977 RMK A01 T02000106  RH  055%=      5-min Rain = 0
KQU1 181514Z 22012KT 20/11 A2977 RMK A01 T02000105  RH  054%=      5-min Rain = 0
KQU1 181515Z 22010KT 20/11 A2977 RMK A01 T02010107  RH  055%=      5-min Rain = 0
KQU1 181516Z 22010KT 20/11 A2977 RMK A01 T02010107  RH  054%=      5-min Rain = 0
KQU1 181517Z 22011KT 20/11 A2977 RMK A01 T02030107  RH  054%=      5-min Rain = 0
KQU1 181518Z 22010KT 20/11 A2977 RMK A01 T02030106  RH  054%=      5-min Rain = 0
KQU1 181519Z 21012KT 20/11 A2977 RMK A01 T02040106  RH  053%=      5-min Rain = 0
KQU1 181520Z 21010KT 20/11 A2977 RMK A01 T02040106  RH  053%=      5-min Rain = 0
KQU1 181521Z 19009KT 20/11 A2977 RMK A01 T02040107  RH  053%=      5-min Rain = 0
KQU1 181522Z 20010KT 20/11 A2977 RMK A01 T02040106  RH  053%=      5-min Rain = 0
KQU1 181523Z 19008KT 21/11 A2977 RMK A01 T02050108  RH  054%=      5-min Rain = 0
KQU1 181524Z 18011KT 21/11 A2977 RMK A01 T02070109  RH  053%=      5-min Rain = 0
KQU1 181525Z 18011KT 21/11 A2977 RMK A01 T02070107  RH  053%=      5-min Rain = 0
KQU1 181526Z 18011KT 21/11 A2977 RMK A01 T02060106  RH  052%=      5-min Rain = 0
KQU1 181527Z 19010KT 21/11 A2977 RMK A01 T02060108  RH  053%=      5-min Rain = 0
KQU1 181528Z 18009KT 21/11 A2977 RMK A01 T02070109  RH  053%=      5-min Rain = 0
KQU1 181529Z 20011KT 21/11 A2977 RMK A01 T02080107  RH  052%=      5-min Rain = 0
KQU1 181530Z 19007KT 21/11 A2977 RMK A01 T02090110  RH  053%=      5-min Rain = 0
KQU1 181531Z 19009KT 21/11 A2977 RMK A01 T02100109  RH  052%=      5-min Rain = 0
KQU1 181532Z 18010KT 21/11 A2977 RMK A01 T02100108  RH  052%=      5-min Rain = 0
KQU1 181533Z 18009KT 21/11 A2977 RMK A01 T02100107  RH  052%=      5-min Rain = 0
KQU1 181534Z 16009KT 21/11 A2977 RMK A01 T02100109  RH  053%=      5-min Rain = 0
KQU1 181535Z 16009KT 21/11 A2977 RMK A01 T02100109  RH  052%=      5-min Rain = 0
KQU1 181536Z 16009KT 21/11 A2977 RMK A01 T02100108  RH  052%=      5-min Rain = 0
KQU1 181537Z 15009KT 21/11 A2977 RMK A01 T02110110  RH  053%=      5-min Rain = 0
KQU1 181538Z 15007KT 21/11 A2977 RMK A01 T02120111  RH  052%=      5-min Rain = 0
KQU1 181539Z 16008KT 21/11 A2977 RMK A01 T02130110  RH  052%=      5-min Rain = 0
KQU1 181540Z 18009KT 21/11 A2977 RMK A01 T02130109  RH  051%=      5-min Rain = 0
KQU1 181541Z 17007KT 21/11 A2977 RMK A01 T02130106  RH  051%=      5-min Rain = 0
KQU1 181542Z 16007KT 21/11 A2977 RMK A01 T02120111  RH  052%=      5-min Rain = 0
KQU1 181543Z 15008KT 21/11 A2976 RMK A01 T02130110  RH  052%=      5-min Rain = 0
KQU1 181544Z 15007KT 21/11 A2976 RMK A01 T02140113  RH  052%=      5-min Rain = 0
KQU1 181545Z 15010KT 22/11 A2976 RMK A01 T02160111  RH  051%=      5-min Rain = 0
KQU1 181546Z 16011KT 22/11 A2976 RMK A01 T02170111  RH  051%=      5-min Rain = 0
KQU1 181547Z 16009KT 22/11 A2976 RMK A01 T02170110  RH  050%=      5-min Rain = 0
KQU1 181548Z 16007KT 22/11 A2976 RMK A01 T02160109  RH  050%=      5-min Rain = 0
KQU1 181549Z 14009KT 22/11 A2976 RMK A01 T02170111  RH  051%=      5-min Rain = 0
KQU1 181550Z 16010KT 22/11 A2976 RMK A01 T02180111  RH  051%=      5-min Rain = 0
KQU1 181551Z 17007KT 22/11 A2976 RMK A01 T02180110  RH  050%=      5-min Rain = 0
KQU1 181552Z 16007KT 22/11 A2976 RMK A01 T02170109  RH  050%=      5-min Rain = 0
KQU1 181553Z 16010KT 22/11 A2976 RMK A01 T02180110  RH  050%=      5-min Rain = 0
KQU1 181554Z 17009KT 22/11 A2976 RMK A01 T02180109  RH  050%=      5-min Rain = 0
KQU1 181555Z 17006KT 22/11 A2976 RMK A01 T02170108  RH  050%=      5-min Rain = 0
KQU1 181556Z 17006KT 22/11 A2976 RMK A01 T02170109  RH  050%=      5-min Rain = 0
KQU1 181557Z 16007KT 22/11 A2976 RMK A01 T02180112  RH  051%=      5-min Rain = 0
KQU1 181558Z 15008KT 22/11 A2976 RMK A01 T02190113  RH  051%=      5-min Rain = 0
KQU1 181559Z 15007KT 22/11 A2976 RMK A01 T02210113  RH  050%=      5-min Rain = 0
KQU1 181600Z 17008KT 22/11 A2976 RMK A01 T02220112  RH  050%=      5-min Rain = 0
KQU1 181601Z 17008KT 22/11 A2976 RMK A01 T02220113  RH  050%=      5-min Rain = 0
KQU1 181602Z 17009KT 22/11 A2976 RMK A01 T02240114  RH  050%=      5-min Rain = 0
KQU1 181603Z 16009KT 23/11 A2976 RMK A01 T02250114  RH  049%=      5-min Rain = 0
KQU1 181604Z 19007KT 23/11 A2976 RMK A01 T02250111  RH  048%=      5-min Rain = 0
KQU1 181605Z 18005KT 22/11 A2976 RMK A01 T02240111  RH  049%=      5-min Rain = 0
KQU1 181606Z 18009KT 23/11 A2976 RMK A01 T02250113  RH  049%=      5-min Rain = 0
KQU1 181607Z 17008KT 23/11 A2976 RMK A01 T02260111  RH  048%=      5-min Rain = 0
KQU1 181608Z 18009KT 23/11 A2976 RMK A01 T02250110  RH  048%=      5-min Rain = 0
KQU1 181609Z 16008KT 23/11 A2976 RMK A01 T02250110  RH  048%=      5-min Rain = 0
KQU1 181610Z 15009KT 22/11 A2976 RMK A01 T02240112  RH  049%=      5-min Rain = 0
KQU1 181611Z 13008KT 22/11 A2976 RMK A01 T02240112  RH  049%=      5-min Rain = 0
KQU1 181612Z 13010KT 23/12 A2975 RMK A01 T02250115  RH  050%=      5-min Rain = 0
KQU1 181613Z 14008KT 23/12 A2975 RMK A01 T02270115  RH  049%=      5-min Rain = 0
KQU1 181614Z 13008KT 23/12 A2975 RMK A01 T02280115  RH  049%=      5-min Rain = 0
KQU1 181615Z 13011KT 23/11 A2975 RMK A01 T02290114  RH  048%=      5-min Rain = 0
KQU1 181616Z 13011KT 23/11 A2975 RMK A01 T02290113  RH  048%=      5-min Rain = 0
KQU1 181617Z 15010KT 23/11 A2975 RMK A01 T02290114  RH  048%=      5-min Rain = 0
KQU1 181618Z 15009KT 23/12 A2975 RMK A01 T02290116  RH  049%=      5-min Rain = 0
KQU1 181619Z 14012KT 23/11 A2975 RMK A01 T02290113  RH  048%=      5-min Rain = 0
KQU1 181620Z 15009KT 23/11 A2975 RMK A01 T02290112  RH  048%=      5-min Rain = 0
KQU1 181621Z 14009KT 23/11 A2975 RMK A01 T02280112  RH  048%=      5-min Rain = 0
KQU1 181622Z 15012KT 23/11 A2975 RMK A01 T02280113  RH  048%=      5-min Rain = 0
KQU1 181623Z 16009KT 23/11 A2975 RMK A01 T02280112  RH  048%=      5-min Rain = 0
KQU1 181624Z 14009KT 23/11 A2975 RMK A01 T02280113  RH  048%=      5-min Rain = 0
KQU1 181625Z 14009KT 23/11 A2975 RMK A01 T02290113  RH  048%=      5-min Rain = 0
KQU1 181626Z 15007KT 23/11 A2975 RMK A01 T02300114  RH  048%=      5-min Rain = 0
KQU1 181627Z 15008KT 23/12 A2975 RMK A01 T02310116  RH  048%=      5-min Rain = 0
KQU1 181628Z 15008KT 23/12 A2975 RMK A01 T02320117  RH  048%=      5-min Rain = 0
KQU1 181629Z 16010KT 24/12 A2975 RMK A01 T02350118  RH  048%=      5-min Rain = 0
KQU1 181630Z 17011KT 24/11 A2975 RMK A01 T02360113  RH  046%=      5-min Rain = 0
KQU1 181631Z 17013KT 24/11 A2975 RMK A01 T02360112  RH  046%=      5-min Rain = 0
KQU1 181632Z 18011KT 24/11 A2975 RMK A01 T02370112  RH  046%=      5-min Rain = 0
KQU1 181633Z 18007KT 24/11 A2975 RMK A01 T02370112  RH  045%=      5-min Rain = 0
KQU1 181634Z 17008KT 24/11 A2975 RMK A01 T02380114  RH  045%=      5-min Rain = 0
KQU1 181635Z 17009KT 24/11 A2975 RMK A01 T02390113  RH  045%=      5-min Rain = 0
KQU1 181636Z 18010KT 24/12 A2975 RMK A01 T02400115  RH  045%=      5-min Rain = 0
KQU1 181637Z 19012KT 24/11 A2975 RMK A01 T02400109  RH  044%=      5-min Rain = 0
KQU1 181638Z 20012KT 24/11 A2975 RMK A01 T02410109  RH  044%=      5-min Rain = 0
KQU1 181639Z 19011KT 24/11 A2975 RMK A01 T02380106  RH  043%=      5-min Rain = 0
KQU1 181640Z 18010KT 24/11 A2975 RMK A01 T02360108  RH  044%=      5-min Rain = 0
KQU1 181641Z 19010KT 24/11 A2975 RMK A01 T02360111  RH  045%=      5-min Rain = 0
KQU1 181642Z 18011KT 24/11 A2975 RMK A01 T02370108  RH  044%=      5-min Rain = 0
KQU1 181643Z 19009KT 24/11 A2975 RMK A01 T02370111  RH  045%=      5-min Rain = 0
KQU1 181644Z 20009KT 24/11 A2975 RMK A01 T02380109  RH  044%=      5-min Rain = 0
KQU1 181645Z 18012KT 24/11 A2975 RMK A01 T02390111  RH  044%=      5-min Rain = 0
KQU1 181646Z 19014KT 24/11 A2975 RMK A01 T02400109  RH  044%=      5-min Rain = 0
KQU1 181647Z 19013KT 24/11 A2975 RMK A01 T02400108  RH  044%=      5-min Rain = 0
KQU1 181648Z 20013KT 24/11 A2975 RMK A01 T02400109  RH  044%=      5-min Rain = 0
KQU1 181649Z 19012KT 24/11 A2975 RMK A01 T02380106  RH  043%=      5-min Rain = 0
KQU1 181650Z 19011KT 24/11 A2975 RMK A01 T02370109  RH  044%=      5-min Rain = 0
KQU1 181651Z 20009KT 24/11 A2975 RMK A01 T02360108  RH  044%=      5-min Rain = 0
KQU1 181652Z 21010KT 24/11 A2974 RMK A01 T02350107  RH  044%=      5-min Rain = 0
KQU1 181653Z 20009KT 23/11 A2974 RMK A01 T02340109  RH  045%=      5-min Rain = 0
KQU1 181654Z 19008KT 24/11 A2974 RMK A01 T02350110  RH  046%=      5-min Rain = 0
KQU1 181655Z 19011KT 24/11 A2974 RMK A01 T02350110  RH  045%=      5-min Rain = 0
KQU1 181656Z 20010KT 24/11 A2974 RMK A01 T02350109  RH  045%=      5-min Rain = 0
KQU1 181657Z 19011KT 24/11 A2974 RMK A01 T02360110  RH  045%=      5-min Rain = 0
KQU1 181658Z 19012KT 24/11 A2974 RMK A01 T02370109  RH  045%=      5-min Rain = 0
KQU1 181659Z 18007KT 24/11 A2974 RMK A01 T02370109  RH  044%=      5-min Rain = 0
KQU1 181700Z 20008KT 24/11 A2974 RMK A01 T02370111  RH  045%=      5-min Rain = 0
KQU1 181701Z 20008KT 24/11 A2974 RMK A01 T02390112  RH  045%=      5-min Rain = 0
KQU1 181702Z 19010KT 24/11 A2974 RMK A01 T02410114  RH  045%=      5-min Rain = 0
KQU1 181703Z 20010KT 24/11 A2974 RMK A01 T02440111  RH  043%=      5-min Rain = 0
KQU1 181704Z 20011KT 25/11 A2974 RMK A01 T02450111  RH  043%=      5-min Rain = 0
KQU1 181705Z 20012KT 25/11 A2973 RMK A01 T02460111  RH  043%=      5-min Rain = 0
KQU1 181706Z 19013KT 25/11 A2973 RMK A01 T02460112  RH  043%=      5-min Rain = 0
KQU1 181707Z 20011KT 25/11 A2973 RMK A01 T02460109  RH  042%=      5-min Rain = 0
KQU1 181708Z 19010KT 25/11 A2973 RMK A01 T02460110  RH  043%=      5-min Rain = 0
KQU1 181709Z 19013KT 25/11 A2973 RMK A01 T02460114  RH  043%=      5-min Rain = 0
KQU1 181710Z 18014KT 25/11 A2973 RMK A01 T02480111  RH  042%=      5-min Rain = 0
KQU1 181711Z 18011KT 25/11 A2973 RMK A01 T02470110  RH  042%=      5-min Rain = 0
KQU1 181712Z 17012KT 25/11 A2973 RMK A01 T02470111  RH  042%=      5-min Rain = 0
KQU1 181713Z 17010KT 25/11 A2973 RMK A01 T02470112  RH  043%=      5-min Rain = 0
KQU1 181714Z 18008KT 25/11 A2973 RMK A01 T02480113  RH  043%=      5-min Rain = 0
KQU1 181715Z 17012KT 25/11 A2973 RMK A01 T02490113  RH  043%=      5-min Rain = 0
KQU1 181716Z 17011KT 25/11 A2973 RMK A01 T02480112  RH  042%=      5-min Rain = 0
KQU1 181717Z 19011KT 25/11 A2973 RMK A01 T02500114  RH  043%=      5-min Rain = 0
KQU1 181718Z 18011G18KT 25/11 A2973 RMK A01 T02510112  RH  042%=      5-min Rain = 0
KQU1 181719Z 19012KT 25/11 A2973 RMK A01 T02510110  RH  041%=      5-min Rain = 0
KQU1 181720Z 21012KT 25/11 A2973 RMK A01 T02520112  RH  042%=      5-min Rain = 0
KQU1 181721Z 18015KT 25/11 A2973 RMK A01 T02520111  RH  041%=      5-min Rain = 0
KQU1 181722Z 18011KT 25/11 A2973 RMK A01 T02520112  RH  041%=      5-min Rain = 0
KQU1 181723Z 18012KT 25/11 A2973 RMK A01 T02520112  RH  041%=      5-min Rain = 0
KQU1 181724Z 19012KT 25/12 A2973 RMK A01 T02530115  RH  042%=      5-min Rain = 0
KQU1 181725Z 19012KT 25/11 A2973 RMK A01 T02540113  RH  041%=      5-min Rain = 0
KQU1 181726Z 19010KT 26/11 A2973 RMK A01 T02560113  RH  041%=      5-min Rain = 0
KQU1 181727Z 19011KT 26/11 A2973 RMK A01 T02560112  RH  041%=      5-min Rain = 0
KQU1 181728Z 20011KT 26/11 A2973 RMK A01 T02550112  RH  041%=      5-min Rain = 0
KQU1 181729Z 19011KT 26/11 A2973 RMK A01 T02560113  RH  041%=      5-min Rain = 0
KQU1 181730Z 19013KT 26/11 A2973 RMK A01 T02550110  RH  040%=      5-min Rain = 0
KQU1 181731Z 17012KT 25/11 A2973 RMK A01 T02530111  RH  041%=      5-min Rain = 0
KQU1 181732Z 18011KT 25/11 A2972 RMK A01 T02530114  RH  042%=      5-min Rain = 0
KQU1 181733Z 19011KT 25/11 A2972 RMK A01 T02530110  RH  041%=      5-min Rain = 0
KQU1 181734Z 20013KT 25/11 A2972 RMK A01 T02530111  RH  041%=      5-min Rain = 0
KQU1 181735Z 18011KT 25/11 A2972 RMK A01 T02520111  RH  041%=      5-min Rain = 0
KQU1 181736Z 18008KT 25/11 A2972 RMK A01 T02520109  RH  041%=      5-min Rain = 0
KQU1 181737Z 20011KT 25/11 A2972 RMK A01 T02500109  RH  041%=      5-min Rain = 0
KQU1 181738Z 18010KT 25/11 A2972 RMK A01 T02480108  RH  041%=      5-min Rain = 0
KQU1 181739Z 17012KT 25/11 A2972 RMK A01 T02450109  RH  042%=      5-min Rain = 0
KQU1 181740Z 17014KT 24/11 A2972 RMK A01 T02430110  RH  043%=      5-min Rain = 0
KQU1 181741Z 18014KT 24/11 A2972 RMK A01 T02420110  RH  044%=      5-min Rain = 0
KQU1 181742Z 18013KT 24/11 A2972 RMK A01 T02400109  RH  043%=      5-min Rain = 0
KQU1 181743Z 18013KT 24/11 A2972 RMK A01 T02390110  RH  044%=      5-min Rain = 0
KQU1 181744Z 19012KT 24/11 A2972 RMK A01 T02390110  RH  044%=      5-min Rain = 0
KQU1 181745Z 20012KT 24/11 A2972 RMK A01 T02390109  RH  044%=      5-min Rain = 0
KQU1 181746Z 20012KT 24/11 A2972 RMK A01 T02380109  RH  044%=      5-min Rain = 0
KQU1 181747Z 19011KT 24/11 A2972 RMK A01 T02380110  RH  044%=      5-min Rain = 0
KQU1 181748Z 20011KT 24/11 A2972 RMK A01 T02380109  RH  044%=      5-min Rain = 0
KQU1 181749Z 20010KT 24/11 A2972 RMK A01 T02380110  RH  044%=      5-min Rain = 0
KQU1 181750Z 21010KT 24/11 A2972 RMK A01 T02380110  RH  044%=      5-min Rain = 0
KQU1 181751Z 22010KT 24/11 A2972 RMK A01 T02380110  RH  045%=      5-min Rain = 0
KQU1 181752Z 21009KT 24/11 A2972 RMK A01 T02380110  RH  044%=      5-min Rain = 0
KQU1 181753Z 21010KT 24/11 A2972 RMK A01 T02380110  RH  044%=      5-min Rain = 0
KQU1 181754Z 21008KT 24/11 A2972 RMK A01 T02390109  RH  044%=      5-min Rain = 0
KQU1 181755Z 19008KT 24/11 A2972 RMK A01 T02390110  RH  044%=      5-min Rain = 0
KQU1 181756Z 20008KT 24/11 A2972 RMK A01 T02390111  RH  045%=      5-min Rain = 0
KQU1 181757Z 19009KT 24/11 A2972 RMK A01 T02400111  RH  044%=      5-min Rain = 0
KQU1 181758Z 19008KT 24/11 A2972 RMK A01 T02400111  RH  044%=      5-min Rain = 0
KQU1 181759Z 18010KT 24/11 A2972 RMK A01 T02410113  RH  045%=      5-min Rain = 0
KQU1 181800Z 18011G17KT 24/12 A2971 RMK A01 T02420115  RH  045%=      5-min Rain = 0
KQU1 181801Z 20014KT 24/11 A2971 RMK A01 T02430114  RH  045%=      5-min Rain = 0
KQU1 181802Z 19014KT 24/11 A2971 RMK A01 T02430113  RH  044%=      5-min Rain = 0
KQU1 181803Z 19015KT 24/11 A2971 RMK A01 T02430111  RH  043%=      5-min Rain = 0
KQU1 181804Z 19015KT 24/11 A2971 RMK A01 T02420111  RH  044%=      5-min Rain = 0
KQU1 181805Z 20014KT 24/11 A2971 RMK A01 T02420112  RH  044%=      5-min Rain = 0
KQU1 181806Z 19012KT 24/11 A2971 RMK A01 T02420111  RH  044%=      5-min Rain = 0
KQU1 181807Z 18015KT 24/11 A2971 RMK A01 T02420113  RH  044%=      5-min Rain = 0
KQU1 181808Z 19013KT 24/11 A2971 RMK A01 T02420112  RH  044%=      5-min Rain = 0
KQU1 181809Z 19013KT 24/11 A2971 RMK A01 T02420111  RH  044%=      5-min Rain = 0
KQU1 181810Z 19014KT 24/11 A2971 RMK A01 T02420111  RH  044%=      5-min Rain = 0
KQU1 181811Z 20012KT 24/11 A2971 RMK A01 T02400110  RH  044%=      5-min Rain = 0
KQU1 181812Z 19014KT 24/11 A2971 RMK A01 T02400112  RH  044%=      5-min Rain = 0
KQU1 181813Z 21014KT 24/11 A2971 RMK A01 T02400112  RH  045%=      5-min Rain = 0
KQU1 181814Z 20013KT 24/11 A2971 RMK A01 T02410113  RH  044%=      5-min Rain = 0
KQU1 181815Z 20013KT 24/12 A2971 RMK A01 T02440115  RH  044%=      5-min Rain = 0
KQU1 181816Z 21013KT 25/11 A2971 RMK A01 T02450113  RH  044%=      5-min Rain = 0
KQU1 181817Z 20013KT 25/11 A2971 RMK A01 T02470114  RH  043%=      5-min Rain = 0
KQU1 181818Z 20013KT 25/11 A297 RMK A01 T02480114  RH  043%=      5-min Rain = 0
KQU1 181819Z 20014KT 25/11 A297 RMK A01 T02500114  RH  042%=      5-min Rain = 0
KQU1 181820Z 21014KT 25/11 A297 RMK A01 T02500112  RH  042%=      5-min Rain = 0
KQU1 181821Z 22015KT 25/12 A297 RMK A01 T02510116  RH  043%=      5-min Rain = 0
KQU1 181822Z 21014KT 26/12 A297 RMK A01 T02550117  RH  042%=      5-min Rain = 0
KQU1 181823Z 20014KT 26/12 A297 RMK A01 T02560115  RH  041%=      5-min Rain = 0
KQU1 181824Z 20012KT 26/12 A297 RMK A01 T02580118  RH  042%=      5-min Rain = 0
KQU1 181825Z 20011G17KT 26/12 A297 RMK A01 T02600118  RH  041%=      5-min Rain = 0
KQU1 181826Z 19014KT 26/11 A297 RMK A01 T02590114  RH  040%=      5-min Rain = 0
KQU1 181827Z 20013KT 26/12 A297 RMK A01 T02580115  RH  041%=      5-min Rain = 0
KQU1 181828Z 20016KT 26/11 A297 RMK A01 T02580113  RH  040%=      5-min Rain = 0
KQU1 181829Z 20013KT 26/11 A297 RMK A01 T02550112  RH  041%=      5-min Rain = 0
KQU1 181830Z 20012KT 26/12 A297 RMK A01 T02550115  RH  042%=      5-min Rain = 0
KQU1 181831Z 19010KT 26/12 A297 RMK A01 T02560119  RH  042%=      5-min Rain = 0
KQU1 181832Z 19012KT 26/12 A297 RMK A01 T02580116  RH  041%=      5-min Rain = 0
KQU1 181833Z 19015KT 26/11 A297 RMK A01 T02570113  RH  040%=      5-min Rain = 0
KQU1 181834Z 19013KT 26/11 A297 RMK A01 T02560114  RH  041%=      5-min Rain = 0
KQU1 181835Z 20012G17KT 26/12 A2969 RMK A01 T02560115  RH  041%=      5-min Rain = 0
KQU1 181836Z 21015KT 26/11 A2969 RMK A01 T02560114  RH  041%=      5-min Rain = 0
KQU1 181837Z 20018KT 26/11 A2969 RMK A01 T02550111  RH  041%=      5-min Rain = 0
KQU1 181838Z 21015KT 25/11 A2969 RMK A01 T02540114  RH  042%=      5-min Rain = 0
KQU1 181839Z 20017KT 26/12 A2969 RMK A01 T02560115  RH  041%=      5-min Rain = 0
KQU1 181840Z 21017KT 26/11 A2969 RMK A01 T02570113  RH  040%=      5-min Rain = 0
KQU1 181841Z 21017KT 26/11 A2969 RMK A01 T02550112  RH  041%=      5-min Rain = 0
KQU1 181842Z 21015KT 25/11 A2969 RMK A01 T02540113  RH  041%=      5-min Rain = 0
KQU1 181843Z 20014KT 25/11 A2969 RMK A01 T02540113  RH  041%=      5-min Rain = 0
KQU1 181844Z 20016KT 25/11 A2969 RMK A01 T02540111  RH  041%=      5-min Rain = 0
KQU1 181845Z 20014KT 25/11 A2969 RMK A01 T02530111  RH  041%=      5-min Rain = 0
KQU1 181846Z 21015KT 25/11 A2969 RMK A01 T02530113  RH  041%=      5-min Rain = 0
KQU1 181847Z 21012G18KT 25/11 A2969 RMK A01 T02520112  RH  041%=      5-min Rain = 0
KQU1 181848Z 21011KT 25/12 A2969 RMK A01 T02520115  RH  042%=      5-min Rain = 0
KQU1 181849Z 21014KT 25/11 A2969 RMK A01 T02530113  RH  042%=      5-min Rain = 0
KQU1 181850Z 21013KT 25/11 A2969 RMK A01 T02520113  RH  042%=      5-min Rain = 0
KQU1 181851Z 20012KT 25/11 A2969 RMK A01 T02520112  RH  042%=      5-min Rain = 0
KQU1 181852Z 21008KT 25/12 A2969 RMK A01 T02530118  RH  043%=      5-min Rain = 0
KQU1 181853Z 21009G14KT 25/12 A2969 RMK A01 T02540118  RH  042%=      5-min Rain = 0
KQU1 181854Z 19012KT 26/12 A2969 RMK A01 T02560116  RH  042%=      5-min Rain = 0
KQU1 181855Z 20012KT 26/12 A2968 RMK A01 T02580116  RH  041%=      5-min Rain = 0
KQU1 181856Z 20013KT 26/12 A2968 RMK A01 T02590116  RH  041%=      5-min Rain = 0
KQU1 181857Z 19014KT 26/11 A2968 RMK A01 T02590113  RH  040%=      5-min Rain = 0
KQU1 181858Z 20012KT 26/11 A2968 RMK A01 T02590113  RH  040%=      5-min Rain = 0
KQU1 181859Z 20014KT 26/11 A2968 RMK A01 T02590113  RH  040%=      5-min Rain = 0
KQU1 181900Z 19011KT 26/11 A2968 RMK A01 T02590112  RH  040%=      5-min Rain = 0
KQU1 181901Z 20013KT 26/11 A2968 RMK A01 T02580112  RH  040%=      5-min Rain = 0
KQU1 181902Z 19013KT 26/11 A2968 RMK A01 T02590114  RH  040%=      5-min Rain = 0
KQU1 181903Z 19013KT 26/11 A2968 RMK A01 T02590113  RH  040%=      5-min Rain = 0
KQU1 181904Z 19012KT 26/11 A2968 RMK A01 T02610113  RH  040%=      5-min Rain = 0
KQU1 181905Z 20011KT 26/11 A2968 RMK A01 T02620114  RH  040%=      5-min Rain = 0
KQU1 181906Z 20010KT 26/11 A2968 RMK A01 T02630114  RH  039%=      5-min Rain = 0
KQU1 181907Z 19009G14KT 27/12 A2968 RMK A01 T02650119  RH  040%=      5-min Rain = 0
KQU1 181908Z 18011KT 27/12 A2967 RMK A01 T02690119  RH  039%=      5-min Rain = 0
KQU1 181909Z 19011KT 27/11 A2967 RMK A01 T02680112  RH  038%=      5-min Rain = 0
KQU1 181910Z 18009KT 27/12 A2967 RMK A01 T02660115  RH  039%=      5-min Rain = 0
KQU1 181911Z 17009KT 27/12 A2967 RMK A01 T02660117  RH  039%=      5-min Rain = 0
KQU1 181912Z 19009KT 27/12 A2967 RMK A01 T02660115  RH  039%=      5-min Rain = 0
KQU1 181913Z 19010KT 27/12 A2967 RMK A01 T02660115  RH  039%=      5-min Rain = 0
KQU1 181914Z 19009KT 27/12 A2967 RMK A01 T02660115  RH  039%=      5-min Rain = 0
KQU1 181915Z 19011KT 27/12 A2967 RMK A01 T02660116  RH  039%=      5-min Rain = 0
KQU1 181916Z 18012KT 27/12 A2967 RMK A01 T02650115  RH  039%=      5-min Rain = 0
KQU1 181917Z 18010KT 27/12 A2967 RMK A01 T02650118  RH  040%=      5-min Rain = 0
KQU1 181918Z 19011KT 27/11 A2967 RMK A01 T02650114  RH  039%=      5-min Rain = 0
KQU1 181919Z 16009KT 27/12 A2967 RMK A01 T02660121  RH  040%=      5-min Rain = 0
KQU1 181920Z 17010KT 27/12 A2967 RMK A01 T02670118  RH  039%=      5-min Rain = 0
KQU1 181921Z 16009KT 27/12 A2967 RMK A01 T02650116  RH  039%=      5-min Rain = 0
KQU1 181922Z 16010KT 26/12 A2967 RMK A01 T02640116  RH  040%=      5-min Rain = 0
KQU1 181923Z 17013KT 26/12 A2967 RMK A01 T02640117  RH  040%=      5-min Rain = 0
KQU1 181924Z 18013KT 26/12 A2967 RMK A01 T02630116  RH  040%=      5-min Rain = 0
KQU1 181925Z 21014KT 26/12 A2966 RMK A01 T02630115  RH  040%=      5-min Rain = 0
KQU1 181926Z 22015KT 26/11 A2966 RMK A01 T02640113  RH  039%=      5-min Rain = 0
KQU1 181927Z 22015KT 26/11 A2966 RMK A01 T02640112  RH  039%=      5-min Rain = 0
KQU1 181928Z 22014KT 26/11 A2966 RMK A01 T02640112  RH  039%=      5-min Rain = 0
KQU1 181929Z 21014KT 26/11 A2966 RMK A01 T02640113  RH  039%=      5-min Rain = 0
KQU1 181930Z 21016KT 26/11 A2966 RMK A01 T02640111  RH  038%=      5-min Rain = 0
KQU1 181931Z 22015KT 26/11 A2966 RMK A01 T02630110  RH  038%=      5-min Rain = 0
KQU1 181932Z 21012KT 26/11 A2966 RMK A01 T02630113  RH  039%=      5-min Rain = 0
KQU1 181933Z 21012KT 26/11 A2966 RMK A01 T02630113  RH  039%=      5-min Rain = 0
KQU1 181934Z 22010KT 26/11 A2966 RMK A01 T02640112  RH  039%=      5-min Rain = 0
KQU1 181935Z 21008KT 26/11 A2966 RMK A01 T02640114  RH  039%=      5-min Rain = 0
KQU1 181936Z 20007KT 27/12 A2966 RMK A01 T02650116  RH  039%=      5-min Rain = 0
KQU1 181937Z 20007KT 27/12 A2966 RMK A01 T02660116  RH  039%=      5-min Rain = 0
KQU1 181938Z 22007KT 27/12 A2966 RMK A01 T02670116  RH  039%=      5-min Rain = 0
KQU1 181939Z 23008G13KT 27/12 A2966 RMK A01 T02680119  RH  039%=      5-min Rain = 0
KQU1 181940Z 22013KT 27/12 A2966 RMK A01 T02700117  RH  038%=      5-min Rain = 0
KQU1 181941Z 22014KT 27/11 A2966 RMK A01 T02710114  RH  037%=      5-min Rain = 0
KQU1 181942Z 22013KT 27/11 A2966 RMK A01 T02710113  RH  037%=      5-min Rain = 0
KQU1 181943Z 22014KT 27/11 A2966 RMK A01 T02700113  RH  037%=      5-min Rain = 0
KQU1 181944Z 22012KT 27/11 A2966 RMK A01 T02700113  RH  038%=      5-min Rain = 0
KQU1 181945Z 23013KT 27/11 A2966 RMK A01 T02700114  RH  038%=      5-min Rain = 0
KQU1 181946Z 22009KT 27/12 A2966 RMK A01 T02700116  RH  038%=      5-min Rain = 0
KQU1 181947Z 23014KT 27/12 A2966 RMK A01 T02710115  RH  038%=      5-min Rain = 0
KQU1 181948Z 23011KT 27/11 A2966 RMK A01 T02720114  RH  037%=      5-min Rain = 0
KQU1 181949Z 21012KT 27/11 A2966 RMK A01 T02740114  RH  037%=      5-min Rain = 0
KQU1 181950Z 21011KT 28/11 A2966 RMK A01 T02760113  RH  036%=      5-min Rain = 0
KQU1 181951Z 21011KT 28/11 A2965 RMK A01 T02770113  RH  036%=      5-min Rain = 0
KQU1 181952Z 21010KT 28/11 A2965 RMK A01 T02780113  RH  036%=      5-min Rain = 0
KQU1 181953Z 21010KT 28/12 A2965 RMK A01 T02780115  RH  036%=      5-min Rain = 0
KQU1 181954Z 22009KT 28/12 A2965 RMK A01 T02770115  RH  036%=      5-min Rain = 0
KQU1 181955Z 22008KT 28/11 A2965 RMK A01 T02770111  RH  036%=      5-min Rain = 0
KQU1 181956Z 23010KT 28/11 A2965 RMK A01 T02750111  RH  036%=      5-min Rain = 0
KQU1 181957Z 21012KT 27/11 A2965 RMK A01 T02730112  RH  037%=      5-min Rain = 0
KQU1 181958Z 22010KT 27/11 A2965 RMK A01 T02720110  RH  036%=      5-min Rain = 0
KQU1 181959Z 22011KT 27/11 A2965 RMK A01 T02720113  RH  037%=      5-min Rain = 0
KQU1 182000Z 21013KT 28/12 A2965 RMK A01 T02750116  RH  037%=      5-min Rain = 0
KQU1 182001Z 20016KT 28/11 A2965 RMK A01 T02760112  RH  036%=      5-min Rain = 0
KQU1 182002Z 21015KT 28/11 A2965 RMK A01 T02760112  RH  036%=      5-min Rain = 0
KQU1 182003Z 20011KT 28/11 A2965 RMK A01 T02750111  RH  036%=      5-min Rain = 0
KQU1 182004Z 21010KT 28/11 A2965 RMK A01 T02750112  RH  036%=      5-min Rain = 0
KQU1 182005Z 22009KT 27/11 A2965 RMK A01 T02740111  RH  036%=      5-min Rain = 0
KQU1 182006Z 22008KT 27/11 A2964 RMK A01 T02740114  RH  037%=      5-min Rain = 0
KQU1 182007Z 20010G15KT 27/11 A2964 RMK A01 T02740113  RH  037%=      5-min Rain = 0
KQU1 182008Z 18013KT 28/12 A2964 RMK A01 T02770118  RH  037%=      5-min Rain = 0
KQU1 182009Z 18014KT 28/11 A2964 RMK A01 T02780111  RH  035%=      5-min Rain = 0
KQU1 182010Z 19014KT 28/11 A2964 RMK A01 T02770113  RH  036%=      5-min Rain = 0
KQU1 182011Z 19016KT 28/11 A2964 RMK A01 T02760112  RH  036%=      5-min Rain = 0
KQU1 182012Z 19013KT 28/11 A2964 RMK A01 T02760112  RH  036%=      5-min Rain = 0
KQU1 182013Z 20010KT 28/11 A2964 RMK A01 T02750110  RH  036%=      5-min Rain = 0
KQU1 182014Z 20008KT 27/11 A2964 RMK A01 T02740112  RH  036%=      5-min Rain = 0
KQU1 182015Z 20007KT 27/11 A2964 RMK A01 T02740114  RH  037%=      5-min Rain = 0
KQU1 182016Z 18006KT 28/12 A2964 RMK A01 T02770119  RH  038%=      5-min Rain = 0
KQU1 182017Z 18009KT 28/12 A2964 RMK A01 T02800118  RH  037%=      5-min Rain = 0
KQU1 182018Z 21007KT 28/12 A2963 RMK A01 T02820117  RH  036%=      5-min Rain = 0
KQU1 182019Z 21011KT 28/11 A2963 RMK A01 T02830114  RH  035%=      5-min Rain = 0
KQU1 182020Z 21012KT 29/12 A2963 RMK A01 T02850115  RH  035%=      5-min Rain = 0
KQU1 182021Z 20013KT 29/11 A2963 RMK A01 T02860113  RH  034%=      5-min Rain = 0
KQU1 182022Z 21014KT 29/11 A2963 RMK A01 T02870112  RH  034%=      5-min Rain = 0
KQU1 182023Z 21013KT 29/11 A2963 RMK A01 T02870111  RH  033%=      5-min Rain = 0
KQU1 182024Z 20011KT 29/11 A2963 RMK A01 T02870109  RH  033%=      5-min Rain = 0
KQU1 182025Z 20009G14KT 29/11 A2963 RMK A01 T02870110  RH  033%=      5-min Rain = 0
KQU1 182026Z 20013KT 29/11 A2963 RMK A01 T02870113  RH  034%=      5-min Rain = 0
KQU1 182027Z 19015KT 29/11 A2963 RMK A01 T02870110  RH  033%=      5-min Rain = 0
KQU1 182028Z 19013KT 29/11 A2963 RMK A01 T02850109  RH  033%=      5-min Rain = 0
KQU1 182029Z 18013KT 29/11 A2963 RMK A01 T02850111  RH  034%=      5-min Rain = 0
KQU1 182030Z 19010KT 29/12 A2963 RMK A01 T02860115  RH  035%=      5-min Rain = 0
KQU1 182031Z 18014KT 29/11 A2962 RMK A01 T02870112  RH  034%=      5-min Rain = 0
KQU1 182032Z 18013KT 29/11 A2962 RMK A01 T02870110  RH  033%=      5-min Rain = 0
KQU1 182033Z 18010KT 29/11 A2962 RMK A01 T02860110  RH  034%=      5-min Rain = 0
KQU1 182034Z 18010KT 29/12 A2962 RMK A01 T02870115  RH  035%=      5-min Rain = 0
KQU1 182035Z 19010KT 29/11 A2962 RMK A01 T02880110  RH  033%=      5-min Rain = 0
KQU1 182036Z 20011KT 29/11 A2962 RMK A01 T02880112  RH  034%=      5-min Rain = 0
KQU1 182037Z 20011KT 29/11 A2962 RMK A01 T02890112  RH  033%=      5-min Rain = 0
KQU1 182038Z 19011KT 29/11 A2962 RMK A01 T02890109  RH  033%=      5-min Rain = 0
KQU1 182039Z 20013KT 29/11 A2962 RMK A01 T02890111  RH  033%=      5-min Rain = 0
KQU1 182040Z 20011KT 29/11 A2962 RMK A01 T02890109  RH  033%=      5-min Rain = 0
KQU1 182041Z 21010KT 29/11 A2962 RMK A01 T02880110  RH  033%=      5-min Rain = 0
KQU1 182042Z 21009KT 29/11 A2961 RMK A01 T02880109  RH  033%=      5-min Rain = 0
KQU1 182043Z 20008KT 29/11 A2961 RMK A01 T02880109  RH  033%=      5-min Rain = 0
KQU1 182044Z 19008KT 29/11 A2961 RMK A01 T02880107  RH  032%=      5-min Rain = 0
KQU1 182045Z 19011KT 29/11 A2961 RMK A01 T02880108  RH  033%=      5-min Rain = 0
KQU1 182046Z 18012KT 29/11 A2961 RMK A01 T02890112  RH  033%=      5-min Rain = 0
KQU1 182047Z 17011KT 29/11 A2961 RMK A01 T02890110  RH  033%=      5-min Rain = 0
KQU1 182048Z 17010KT 29/12 A2961 RMK A01 T02900115  RH  034%=      5-min Rain = 0
KQU1 182049Z 17010KT 29/12 A2962 RMK A01 T02920115  RH  033%=      5-min Rain = 0
KQU1 182050Z 17011KT 29/11 A2962 RMK A01 T02910110  RH  033%=      5-min Rain = 0
KQU1 182051Z 17008KT 29/11 A2962 RMK A01 T02890109  RH  033%=      5-min Rain = 0
KQU1 182052Z 18008KT 29/11 A2961 RMK A01 T02870110  RH  033%=      5-min Rain = 0
KQU1 182053Z 19009KT 29/11 A2961 RMK A01 T02870112  RH  034%=      5-min Rain = 0
KQU1 182054Z 19011KT 29/11 A2961 RMK A01 T02880108  RH  033%=      5-min Rain = 0
KQU1 182055Z 21009KT 29/11 A2961 RMK A01 T02900109  RH  033%=      5-min Rain = 0
KQU1 182056Z 20009KT 29/11 A2961 RMK A01 T02900109  RH  032%=      5-min Rain = 0
KQU1 182057Z 17014KT 29/11 A2961 RMK A01 T02920111  RH  032%=      5-min Rain = 0
KQU1 182058Z 18013KT 29/11 A2961 RMK A01 T02940112  RH  033%=      5-min Rain = 0
KQU1 182059Z 18013KT 30/11 A2961 RMK A01 T02950110  RH  032%=      5-min Rain = 0
KQU1 182100Z 18014KT 29/11 A2961 RMK A01 T02940108  RH  031%=      5-min Rain = 0
KQU1 182101Z 18011KT 29/11 A2961 RMK A01 T02940110  RH  032%=      5-min Rain = 0
KQU1 182102Z 21012KT 30/11 A2961 RMK A01 T02950111  RH  032%=      5-min Rain = 0
KQU1 182103Z 20010KT 30/11 A2961 RMK A01 T02950110  RH  032%=      5-min Rain = 0
KQU1 182104Z 19012KT 30/11 A2961 RMK A01 T02960107  RH  031%=      5-min Rain = 0
KQU1 182105Z 19014KT 30/11 A2961 RMK A01 T02960107  RH  031%=      5-min Rain = 0
KQU1 182106Z 19012KT 30/11 A2961 RMK A01 T02960110  RH  032%=      5-min Rain = 0
KQU1 182107Z 18014KT 30/11 A2961 RMK A01 T02970109  RH  031%=      5-min Rain = 0
KQU1 182108Z 18015KT 30/11 A2961 RMK A01 T02970110  RH  031%=      5-min Rain = 0
KQU1 182109Z 18013KT 30/11 A2961 RMK A01 T02970110  RH  031%=      5-min Rain = 0
KQU1 182110Z 18013KT 30/11 A2961 RMK A01 T02960109  RH  031%=      5-min Rain = 0
KQU1 182111Z 18011KT 30/11 A2961 RMK A01 T02950108  RH  032%=      5-min Rain = 0
KQU1 182112Z 18010KT 29/11 A296 RMK A01 T02930107  RH  032%=      5-min Rain = 0
KQU1 182113Z 19011KT 29/11 A296 RMK A01 T02910109  RH  032%=      5-min Rain = 0
KQU1 182114Z 19012KT 29/11 A296 RMK A01 T02900108  RH  032%=      5-min Rain = 0
KQU1 182115Z 19013KT 29/10 A296 RMK A01 T02890104  RH  032%=      5-min Rain = 0
KQU1 182116Z 17012KT 29/11 A296 RMK A01 T02890106  RH  032%=      5-min Rain = 0
KQU1 182117Z 18013KT 29/11 A296 RMK A01 T02890107  RH  032%=      5-min Rain = 0
KQU1 182118Z 19012KT 29/11 A296 RMK A01 T02890106  RH  032%=      5-min Rain = 0
KQU1 182119Z 20013KT 29/11 A296 RMK A01 T02880105  RH  032%=      5-min Rain = 0
KQU1 182120Z 20012KT 29/10 A296 RMK A01 T02880104  RH  032%=      5-min Rain = 0
KQU1 182121Z 21010KT 29/11 A296 RMK A01 T02870105  RH  032%=      5-min Rain = 0
KQU1 182122Z 21012KT 29/10 A296 RMK A01 T02860104  RH  032%=      5-min Rain = 0
KQU1 182123Z 22011KT 29/11 A296 RMK A01 T02850105  RH  032%=      5-min Rain = 0
KQU1 182124Z 23014KT 29/11 A2961 RMK A01 T02850106  RH  033%=      5-min Rain = 0
KQU1 182125Z 24015KT 28/11 A2961 RMK A01 T02840105  RH  033%=      5-min Rain = 0
KQU1 182126Z 27017KT 28/11 A2962 RMK A01 T02830109  RH  034%=      5-min Rain = 0
KQU1 182127Z 29017G22KT 28/12 A2962 RMK A01 T02750118  RH  038%=      5-min Rain = 0
KQU1 182128Z 29018KT 27/12 A2962 RMK A01 T02680121  RH  040%=      5-min Rain = 0
KQU1 182129Z 28013KT 26/12 A2962 RMK A01 T02630124  RH  042%=      5-min Rain = 0
KQU1 182130Z 30013G18KT 26/13 A2961 RMK A01 T02610127  RH  043%=      5-min Rain = 0
KQU1 182131Z 30016KT 26/13 A2961 RMK A01 T02590127  RH  044%=      5-min Rain = 0
KQU1 182132Z 30014KT 26/13 A2961 RMK A01 T02560126  RH  044%=      5-min Rain = 0
KQU1 182133Z 31010KT 25/13 A2961 RMK A01 T02540128  RH  045%=      5-min Rain = 0
KQU1 182134Z 31010KT 25/13 A2961 RMK A01 T02540130  RH  046%=      5-min Rain = 0
KQU1 182135Z 31008KT 25/13 A2961 RMK A01 T02530130  RH  046%=      5-min Rain = 0
KQU1 182136Z 30010KT 25/13 A2961 RMK A01 T02540131  RH  046%=      5-min Rain = 0
KQU1 182137Z 29013G18KT 26/13 A296 RMK A01 T02560132  RH  046%=      5-min Rain = 0
KQU1 182138Z 22010G18KT 26/12 A296 RMK A01 T02600124  RH  043%=      5-min Rain = 0
KQU1 182139Z 24010KT 27/12 A296 RMK A01 T02650122  RH  041%=      5-min Rain = 0
KQU1 182140Z 26007KT 27/12 A296 RMK A01 T02670122  RH  041%=      5-min Rain = 0
KQU1 182141Z 27006KT 27/12 A296 RMK A01 T02690123  RH  040%=      5-min Rain = 0
KQU1 182142Z 26007KT 27/12 A296 RMK A01 T02700124  RH  040%=      5-min Rain = 0
KQU1 182143Z 25006KT 27/12 A296 RMK A01 T02700122  RH  040%=      5-min Rain = 0
KQU1 182144Z 26007KT 27/12 A296 RMK A01 T02690123  RH  040%=      5-min Rain = 0
KQU1 182145Z 25007KT 27/12 A296 RMK A01 T02680123  RH  040%=      5-min Rain = 0
KQU1 182146Z 28007KT 27/12 A296 RMK A01 T02680124  RH  041%=      5-min Rain = 0
KQU1 182147Z 28007KT 27/13 A296 RMK A01 T02680125  RH  041%=      5-min Rain = 0
KQU1 182148Z 28009KT 27/12 A296 RMK A01 T02690117  RH  039%=      5-min Rain = 0
KQU1 182149Z 29006KT 27/12 A296 RMK A01 T02680115  RH  038%=      5-min Rain = 0
KQU1 182150Z 30005KT 27/12 A296 RMK A01 T02680118  RH  039%=      5-min Rain = 0
KQU1 182151Z 31006KT 27/12 A296 RMK A01 T02690121  RH  040%=      5-min Rain = 0
KQU1 182152Z 31006KT 27/12 A296 RMK A01 T02700122  RH  040%=      5-min Rain = 0
KQU1 182153Z 31006KT 27/11 A296 RMK A01 T02700113  RH  038%=      5-min Rain = 0
KQU1 182154Z 31005KT 27/11 A296 RMK A01 T02690113  RH  038%=      5-min Rain = 0
KQU1 182155Z 32003KT 27/12 A296 RMK A01 T02680115  RH  038%=      5-min Rain = 0
KQU1 182156Z 33003KT 27/12 A296 RMK A01 T02680120  RH  040%=      5-min Rain = 0
KQU1 182157Z 32004KT 27/12 A296 RMK A01 T02690117  RH  039%=      5-min Rain = 0
KQU1 182158Z 32004KT 27/12 A296 RMK A01 T02700117  RH  039%=      5-min Rain = 0
KQU1 182159Z 32003KT 27/12 A296 RMK A01 T02700115  RH  038%=      5-min Rain = 0
KQU1 182200Z 34003KT 27/12 A296 RMK A01 T02710117  RH  038%=      5-min Rain = 0
KQU1 182201Z 01003KT 27/12 A296 RMK A01 T02710115  RH  038%=      5-min Rain = 0
KQU1 182202Z 01004KT 27/11 A296 RMK A01 T02700113  RH  038%=      5-min Rain = 0
KQU1 182203Z 00003KT 27/11 A296 RMK A01 T02680114  RH  038%=      5-min Rain = 0
KQU1 182204Z 36003KT 27/12 A296 RMK A01 T02660118  RH  040%=      5-min Rain = 0
KQU1 182205Z 03002KT 27/12 A296 RMK A01 T02650117  RH  040%=      5-min Rain = 0
KQU1 182206Z 04004KT 27/12 A296 RMK A01 T02660120  RH  040%=      5-min Rain = 0
KQU1 182207Z 03004KT 27/12 A296 RMK A01 T02660121  RH  041%=      5-min Rain = 0
KQU1 182208Z 04004KT 27/12 A296 RMK A01 T02660122  RH  041%=      5-min Rain = 0
KQU1 182209Z 05004KT 27/13 A296 RMK A01 T02650125  RH  042%=      5-min Rain = 0
KQU1 182210Z 04004KT 26/12 A296 RMK A01 T02630122  RH  042%=      5-min Rain = 0
KQU1 182211Z 04004KT 26/12 A296 RMK A01 T02620124  RH  042%=      5-min Rain = 0
KQU1 182212Z 02003KT 26/13 A296 RMK A01 T02620126  RH  043%=      5-min Rain = 0
KQU1 182213Z 01003KT 26/13 A296 RMK A01 T02630130  RH  044%=      5-min Rain = 0
KQU1 182214Z 35003KT 26/13 A296 RMK A01 T02630131  RH  044%=      5-min Rain = 0
KQU1 182215Z 34004KT 26/13 A296 RMK A01 T02640129  RH  043%=      5-min Rain = 0
KQU1 182216Z 34004KT 26/13 A296 RMK A01 T02640126  RH  042%=      5-min Rain = 0
KQU1 182217Z 35005KT 27/13 A296 RMK A01 T02650126  RH  042%=      5-min Rain = 0
KQU1 182218Z 01004KT 27/13 A296 RMK A01 T02650127  RH  042%=      5-min Rain = 0
KQU1 182219Z 01005KT 27/13 A296 RMK A01 T02660126  RH  042%=      5-min Rain = 0
KQU1 182220Z 03003KT 27/13 A296 RMK A01 T02660125  RH  041%=      5-min Rain = 0
KQU1 182221Z 03003KT 27/12 A296 RMK A01 T02670124  RH  041%=      5-min Rain = 0
KQU1 182222Z 02005KT 27/12 A296 RMK A01 T02670124  RH  041%=      5-min Rain = 0
KQU1 182223Z 02005KT 27/12 A296 RMK A01 T02680124  RH  041%=      5-min Rain = 0
KQU1 182224Z 02004KT 27/12 A296 RMK A01 T02680124  RH  041%=      5-min Rain = 0
KQU1 182225Z 01003KT 27/13 A296 RMK A01 T02690127  RH  041%=      5-min Rain = 0
KQU1 182226Z 35003KT 27/13 A296 RMK A01 T02690128  RH  042%=      5-min Rain = 0
KQU1 182227Z 35004G9KT 27/13 A296 RMK A01 T02700128  RH  041%=      5-min Rain = 0
KQU1 182228Z 03004KT 27/13 A296 RMK A01 T02700126  RH  041%=      5-min Rain = 0
KQU1 182229Z 03003KT 27/13 A296 RMK A01 T02700125  RH  041%=      5-min Rain = 0
KQU1 182230Z 01002KT 27/13 A296 RMK A01 T02690125  RH  041%=      5-min Rain = 0
KQU1 182231Z 03002KT 27/13 A296 RMK A01 T02690126  RH  041%=      5-min Rain = 0
KQU1 182232Z 03004KT 27/13 A296 RMK A01 T02680125  RH  041%=      5-min Rain = 0
KQU1 182233Z 03005KT 27/13 A296 RMK A01 T02670126  RH  042%=      5-min Rain = 0
KQU1 182234Z 03006KT 27/13 A296 RMK A01 T02670126  RH  042%=      5-min Rain = 0
KQU1 182235Z 02005KT 27/13 A296 RMK A01 T02660127  RH  042%=      5-min Rain = 0
KQU1 182236Z 35002KT 27/13 A296 RMK A01 T02660132  RH  044%=      5-min Rain = 0
KQU1 182237Z 00001KT 27/13 A296 RMK A01 T02660132  RH  043%=      5-min Rain = 0
KQU1 182238Z 34002KT 27/13 A296 RMK A01 T02670130  RH  043%=      5-min Rain = 0
KQU1 182239Z 35004KT 27/13 A296 RMK A01 T02670127  RH  042%=      5-min Rain = 0
KQU1 182240Z 35004KT 27/13 A296 RMK A01 T02660128  RH  042%=      5-min Rain = 0
KQU1 182241Z 35004KT 27/13 A296 RMK A01 T02650129  RH  043%=      5-min Rain = 0
KQU1 182242Z 00007KT 26/13 A296 RMK A01 T02640128  RH  043%=      5-min Rain = 0
KQU1 182243Z 34003KT 26/13 A296 RMK A01 T02640129  RH  043%=      5-min Rain = 0
KQU1 182244Z 04003G8KT 27/13 A296 RMK A01 T02650131  RH  044%=      5-min Rain = 0
KQU1 182245Z 35004G9KT 27/13 A296 RMK A01 T02650130  RH  043%=      5-min Rain = 0
KQU1 182246Z 36003KT 27/13 A296 RMK A01 T02650129  RH  043%=      5-min Rain = 0
KQU1 182247Z 35005G10KT 26/13 A296 RMK A01 T02640128  RH  043%=      5-min Rain = 0
KQU1 182248Z 36006KT 26/13 A296 RMK A01 T02630129  RH  043%=      5-min Rain = 0
KQU1 182249Z 36005KT 26/13 A296 RMK A01 T02620126  RH  043%=      5-min Rain = 0
KQU1 182250Z 00002G7KT 26/13 A296 RMK A01 T02610128  RH  044%=      5-min Rain = 0
KQU1 182251Z 02004KT 26/13 A296 RMK A01 T02610128  RH  044%=      5-min Rain = 0
KQU1 182252Z 04006KT 26/13 A296 RMK A01 T02610128  RH  044%=      5-min Rain = 0
KQU1 182253Z 04005KT 26/13 A296 RMK A01 T02610129  RH  044%=      5-min Rain = 0
KQU1 182254Z 04005KT 26/13 A296 RMK A01 T02610129  RH  044%=      5-min Rain = 0
KQU1 182255Z 03006KT 26/13 A296 RMK A01 T02610127  RH  043%=      5-min Rain = 0
KQU1 182256Z 03007KT 26/12 A296 RMK A01 T02590124  RH  043%=      5-min Rain = 0
KQU1 182257Z 02007KT 26/13 A296 RMK A01 T02590128  RH  044%=      5-min Rain = 0
KQU1 182258Z 03009KT 26/13 A296 RMK A01 T02570131  RH  045%=      5-min Rain = 0
KQU1 182259Z 04008KT 26/13 A296 RMK A01 T02560131  RH  046%=      5-min Rain = 0
KQU1 182300Z 03006KT 26/13 A296 RMK A01 T02550133  RH  047%=      5-min Rain = 0
KQU1 182301Z 03007KT 26/13 A296 RMK A01 T02550134  RH  047%=      5-min Rain = 0
KQU1 182302Z 03007KT 25/13 A296 RMK A01 T02540133  RH  047%=      5-min Rain = 0
KQU1 182303Z 03008KT 25/13 A296 RMK A01 T02530134  RH  048%=      5-min Rain = 0
KQU1 182304Z 02005KT 25/14 A296 RMK A01 T02530135  RH  048%=      5-min Rain = 0
KQU1 182305Z 01002KT 25/14 A296 RMK A01 T02520136  RH  049%=      5-min Rain = 0
KQU1 182306Z 34000KT 25/14 A296 RMK A01 T02530138  RH  049%=      5-min Rain = 0
KQU1 182307Z 02003KT 25/14 A296 RMK A01 T02540139  RH  049%=      5-min Rain = 0
KQU1 182308Z 03006KT 26/14 A296 RMK A01 T02550137  RH  048%=      5-min Rain = 0
KQU1 182309Z 02005KT 25/14 A296 RMK A01 T02540137  RH  048%=      5-min Rain = 0
KQU1 182310Z 00001KT 25/14 A296 RMK A01 T02530137  RH  049%=      5-min Rain = 0
KQU1 182311Z 30001KT 25/14 A296 RMK A01 T02520138  RH  049%=      5-min Rain = 0
KQU1 182312Z 02004KT 25/14 A296 RMK A01 T02520138  RH  049%=      5-min Rain = 0
KQU1 182313Z 01003KT 25/14 A296 RMK A01 T02510137  RH  049%=      5-min Rain = 0
KQU1 182314Z 02003KT 25/14 A296 RMK A01 T02500136  RH  049%=      5-min Rain = 0
KQU1 182315Z 02004KT 25/14 A296 RMK A01 T02490135  RH  049%=      5-min Rain = 0
KQU1 182316Z 01003KT 25/14 A296 RMK A01 T02480135  RH  050%=      5-min Rain = 0
KQU1 182317Z 34001KT 25/14 A296 RMK A01 T02460135  RH  050%=      5-min Rain = 0
KQU1 182318Z 35002KT 24/14 A296 RMK A01 T02440135  RH  050%=      5-min Rain = 0
KQU1 182319Z 00003KT 24/14 A296 RMK A01 T02430136  RH  051%=      5-min Rain = 0
KQU1 182320Z 35002KT 24/14 A296 RMK A01 T02420137  RH  052%=      5-min Rain = 0
KQU1 182321Z 02003KT 24/14 A296 RMK A01 T02410137  RH  052%=      5-min Rain = 0
KQU1 182322Z 03004KT 24/14 A296 RMK A01 T02400138  RH  053%=      5-min Rain = 0
KQU1 182323Z 04004KT 24/14 A296 RMK A01 T02390138  RH  053%=      5-min Rain = 0
KQU1 182324Z 04005KT 24/14 A296 RMK A01 T02380138  RH  053%=      5-min Rain = 0
KQU1 182325Z 04007KT 24/14 A296 RMK A01 T02370137  RH  053%=      5-min Rain = 0
KQU1 182326Z 04006KT 24/14 A296 RMK A01 T02360137  RH  054%=      5-min Rain = 0
KQU1 182327Z 02005KT 24/14 A296 RMK A01 T02350137  RH  054%=      5-min Rain = 0
KQU1 182328Z 02004KT 24/14 A296 RMK A01 T02350138  RH  055%=      5-min Rain = 0
KQU1 182329Z 01003KT 23/14 A296 RMK A01 T02330138  RH  055%=      5-min Rain = 0
KQU1 182330Z 00002KT 23/14 A296 RMK A01 T02330139  RH  055%=      5-min Rain = 0
KQU1 182331Z 02003KT 23/14 A296 RMK A01 T02320139  RH  056%=      5-min Rain = 0
KQU1 182332Z 02005KT 23/14 A296 RMK A01 T02310140  RH  056%=      5-min Rain = 0
KQU1 182333Z 02006KT 23/14 A296 RMK A01 T02300139  RH  056%=      5-min Rain = 0
KQU1 182334Z 02006KT 23/14 A296 RMK A01 T02290138  RH  056%=      5-min Rain = 0
KQU1 182335Z 01005KT 23/14 A296 RMK A01 T02290138  RH  057%=      5-min Rain = 0
KQU1 182336Z 01005KT 23/14 A296 RMK A01 T02290139  RH  057%=      5-min Rain = 0
KQU1 182337Z 01005KT 23/14 A296 RMK A01 T02280139  RH  057%=      5-min Rain = 0
KQU1 182338Z 01005KT 23/14 A296 RMK A01 T02270139  RH  057%=      5-min Rain = 0
KQU1 182339Z 01005KT 23/14 A296 RMK A01 T02270139  RH  058%=      5-min Rain = 0
KQU1 182340Z 35002KT 23/14 A296 RMK A01 T02250139  RH  058%=      5-min Rain = 0
KQU1 182341Z 34004KT 22/14 A296 RMK A01 T02240139  RH  058%=      5-min Rain = 0
KQU1 182342Z 00005KT 22/14 A296 RMK A01 T02240139  RH  059%=      5-min Rain = 0
KQU1 182343Z 01006KT 22/14 A296 RMK A01 T02240139  RH  059%=      5-min Rain = 0
KQU1 182344Z 02006KT 22/14 A296 RMK A01 T02240139  RH  058%=      5-min Rain = 0
KQU1 182345Z 02005KT 22/14 A2961 RMK A01 T02240139  RH  059%=      5-min Rain = 0
KQU1 182346Z 02004KT 22/14 A2961 RMK A01 T02240139  RH  059%=      5-min Rain = 0
KQU1 182347Z 02004KT 22/14 A2961 RMK A01 T02240139  RH  059%=      5-min Rain = 0
KQU1 182348Z 01004KT 22/14 A2961 RMK A01 T02240139  RH  059%=      5-min Rain = 0
KQU1 182349Z 36004KT 22/14 A2961 RMK A01 T02230139  RH  059%=      5-min Rain = 0
KQU1 182350Z 35004KT 22/14 A2961 RMK A01 T02230139  RH  059%=      5-min Rain = 0
KQU1 182351Z 35005KT 22/14 A2961 RMK A01 T02220139  RH  059%=      5-min Rain = 0
KQU1 182352Z 35006KT 22/14 A2961 RMK A01 T02220139  RH  059%=      5-min Rain = 0
KQU1 182353Z 35006KT 22/14 A2961 RMK A01 T02220139  RH  059%=      5-min Rain = 0
KQU1 182354Z 35006KT 22/14 A2961 RMK A01 T02220139  RH  059%=      5-min Rain = 0
KQU1 182355Z 35006KT 22/14 A2961 RMK A01 T02220139  RH  059%=      5-min Rain = 0
KQU1 182356Z 35004KT 22/14 A2961 RMK A01 T02210139  RH  060%=      5-min Rain = 0
KQU1 182357Z 35005KT 22/14 A2961 RMK A01 T02210140  RH  060%=      5-min Rain = 0
KQU1 182358Z 35005KT 22/14 A296 RMK A01 T02220141  RH  060%=      5-min Rain = 0
KQU1 182359Z 35004KT 22/14 A296 RMK A01 T02220141  RH  060%=      5-min Rain = 0
KQU1 190000Z 35004KT 22/14 A296 RMK A01 T02220142  RH  061%=      5-min Rain = 0
KQU1 190001Z 36004KT 22/14 A296 RMK A01 T02210142  RH  061%=      5-min Rain = 0
KQU1 190002Z 01003KT 22/14 A296 RMK A01 T02210143  RH  061%=      5-min Rain = 0
KQU1 190003Z 35003KT 22/14 A296 RMK A01 T02210142  RH  061%=      5-min Rain = 0
KQU1 190004Z 35003KT 22/14 A296 RMK A01 T02210143  RH  061%=      5-min Rain = 0
KQU1 190005Z 34004KT 22/14 A296 RMK A01 T02200143  RH  062%=      5-min Rain = 0
KQU1 190006Z 31004KT 22/14 A2961 RMK A01 T02190144  RH  062%=      5-min Rain = 0
KQU1 190007Z 31004KT 22/14 A2961 RMK A01 T02180143  RH  063%=      5-min Rain = 0
KQU1 190008Z 32004KT 22/14 A2961 RMK A01 T02160143  RH  063%=      5-min Rain = 0
KQU1 190009Z 33004KT 21/14 A2961 RMK A01 T02140144  RH  064%=      5-min Rain = 0
KQU1 190010Z 30005KT 21/14 A2961 RMK A01 T02130144  RH  065%=      5-min Rain = 0
KQU1 190011Z 30006KT 21/14 A2961 RMK A01 T02110144  RH  066%=      5-min Rain = 0
KQU1 190012Z 31007KT 21/15 A2961 RMK A01 T02090145  RH  066%=      5-min Rain = 0
KQU1 190013Z 30007KT 21/15 A2961 RMK A01 T02090145  RH  067%=      5-min Rain = 0
KQU1 190014Z 30006KT 21/15 A2961 RMK A01 T02080145  RH  067%=      5-min Rain = 0
KQU1 190015Z 30006KT 21/14 A2961 RMK A01 T02070144  RH  067%=      5-min Rain = 0
KQU1 190016Z 30006KT 21/14 A2961 RMK A01 T02070144  RH  067%=      5-min Rain = 0
KQU1 190017Z 31006KT 21/14 A2961 RMK A01 T02070144  RH  067%=      5-min Rain = 0
KQU1 190018Z 31007KT 21/14 A2961 RMK A01 T02070143  RH  067%=      5-min Rain = 0
KQU1 190019Z 29006KT 21/14 A2961 RMK A01 T02070143  RH  067%=      5-min Rain = 0
KQU1 190020Z 28009KT 21/14 A2962 RMK A01 T02060143  RH  067%=      5-min Rain = 0
KQU1 190021Z 31008KT 21/14 A2961 RMK A01 T02070141  RH  066%=      5-min Rain = 0
KQU1 190022Z 34006KT 21/14 A2961 RMK A01 T02110139  RH  064%=      5-min Rain = 0
KQU1 190023Z 35007KT 21/14 A2961 RMK A01 T02130139  RH  063%=      5-min Rain = 0
KQU1 190024Z 34006KT 21/14 A2961 RMK A01 T02140138  RH  062%=      5-min Rain = 0
KQU1 190025Z 34005KT 22/14 A2961 RMK A01 T02160138  RH  061%=      5-min Rain = 0
KQU1 190026Z 35007KT 22/14 A2961 RMK A01 T02170139  RH  061%=      5-min Rain = 0
KQU1 190027Z 35007KT 22/14 A2961 RMK A01 T02170139  RH  061%=      5-min Rain = 0
KQU1 190028Z 33005KT 22/14 A2961 RMK A01 T02170138  RH  061%=      5-min Rain = 0
KQU1 190029Z 34005KT 22/14 A2961 RMK A01 T02170137  RH  060%=      5-min Rain = 0
KQU1 190030Z 35005KT 22/14 A2961 RMK A01 T02180137  RH  060%=      5-min Rain = 0
KQU1 190031Z 36003KT 22/14 A2961 RMK A01 T02180137  RH  060%=      5-min Rain = 0
KQU1 190032Z 35001KT 22/14 A2961 RMK A01 T02180137  RH  060%=      5-min Rain = 0
KQU1 190033Z 07001KT 22/14 A2961 RMK A01 T02180137  RH  060%=      5-min Rain = 0
KQU1 190034Z 05001KT 22/14 A2961 RMK A01 T02180137  RH  060%=      5-min Rain = 0
KQU1 190035Z 01001KT 22/14 A2961 RMK A01 T02180138  RH  060%=      5-min Rain = 0
KQU1 190036Z 04001KT 22/14 A2961 RMK A01 T02170138  RH  061%=      5-min Rain = 0
KQU1 190037Z 02004KT 22/14 A2961 RMK A01 T02170139  RH  061%=      5-min Rain = 0
KQU1 190038Z 03005KT 22/14 A2961 RMK A01 T02160139  RH  062%=      5-min Rain = 0
KQU1 190039Z 03003KT 22/14 A2961 RMK A01 T02160140  RH  062%=      5-min Rain = 0
KQU1 190040Z 03004KT 22/14 A2961 RMK A01 T02150140  RH  062%=      5-min Rain = 0
KQU1 190041Z 03004KT 22/14 A2961 RMK A01 T02150140  RH  062%=      5-min Rain = 0
KQU1 190042Z 01002KT 22/14 A2961 RMK A01 T02150139  RH  062%=      5-min Rain = 0
KQU1 190043Z 01001KT 21/14 A2961 RMK A01 T02140140  RH  062%=      5-min Rain = 0
KQU1 190044Z 35001KT 21/14 A2961 RMK A01 T02140140  RH  063%=      5-min Rain = 0
KQU1 190045Z 36002KT 21/14 A2961 RMK A01 T02130140  RH  063%=      5-min Rain = 0
KQU1 190046Z 35002KT 21/14 A2961 RMK A01 T02120139  RH  063%=      5-min Rain = 0
KQU1 190047Z 33004KT 21/14 A2962 RMK A01 T02110138  RH  063%=      5-min Rain = 0
KQU1 190048Z 33005KT 21/14 A2962 RMK A01 T02100138  RH  063%=      5-min Rain = 0
KQU1 190049Z 31006KT 21/14 A2962 RMK A01 T02090137  RH  064%=      5-min Rain = 0
KQU1 190050Z 31006KT 21/14 A2962 RMK A01 T02060137  RH  065%=      5-min Rain = 0
KQU1 190051Z 33007KT 21/14 A2962 RMK A01 T02050137  RH  065%=      5-min Rain = 0
KQU1 190052Z 35007KT 21/14 A2962 RMK A01 T02050138  RH  065%=      5-min Rain = 0
KQU1 190053Z 34003KT 21/14 A2962 RMK A01 T02060138  RH  065%=      5-min Rain = 0
KQU1 190054Z 22001G6KT 21/14 A2962 RMK A01 T02060138  RH  065%=      5-min Rain = 0
KQU1 190055Z 25006KT 21/14 A2962 RMK A01 T02050137  RH  065%=      5-min Rain = 0
KQU1 190056Z 31004KT 20/14 A2962 RMK A01 T02030137  RH  066%=      5-min Rain = 0
KQU1 190057Z 28002KT 20/14 A2962 RMK A01 T02030136  RH  065%=      5-min Rain = 0
KQU1 190058Z 25004KT 20/14 A2962 RMK A01 T02030137  RH  066%=      5-min Rain = 0
KQU1 190059Z 26003KT 20/14 A2962 RMK A01 T02020137  RH  066%=      5-min Rain = 0
KQU1 190100Z 28003KT 20/14 A2962 RMK A01 T02010136  RH  066%=      5-min Rain = 0
KQU1 190101Z 30003KT 20/14 A2962 RMK A01 T02000136  RH  066%=      5-min Rain = 0
KQU1 190102Z 29003KT 20/14 A2962 RMK A01 T02000135  RH  066%=      5-min Rain = 0
KQU1 190103Z 28003KT 20/14 A2962 RMK A01 T01980135  RH  067%=      5-min Rain = 0
KQU1 190104Z 28004KT 20/13 A2962 RMK A01 T01970134  RH  067%=      5-min Rain = 0
KQU1 190105Z 29004KT 20/13 A2962 RMK A01 T01950133  RH  067%=      5-min Rain = 0
KQU1 190106Z 29004KT 19/13 A2962 RMK A01 T01930133  RH  068%=      5-min Rain = 0
KQU1 190107Z 30004KT 19/13 A2962 RMK A01 T01920133  RH  069%=      5-min Rain = 0
KQU1 190108Z 30005KT 19/13 A2962 RMK A01 T01910133  RH  069%=      5-min Rain = 0
KQU1 190109Z 30008KT 19/13 A2962 RMK A01 T01890133  RH  070%=      5-min Rain = 0
KQU1 190110Z 30011KT 19/13 A2962 RMK A01 T01890134  RH  071%=      5-min Rain = 0
KQU1 190111Z 30010KT 19/13 A2962 RMK A01 T01890132  RH  069%=      5-min Rain = 0
KQU1 190112Z 29007KT 19/13 A2962 RMK A01 T01910131  RH  068%=      5-min Rain = 0
KQU1 190113Z 28006KT 19/13 A2962 RMK A01 T01920130  RH  067%=      5-min Rain = 0
KQU1 190114Z 28006KT 19/13 A2962 RMK A01 T01920130  RH  067%=      5-min Rain = 0
KQU1 190115Z 28005KT 19/13 A2962 RMK A01 T01920129  RH  067%=      5-min Rain = 0
KQU1 190116Z 27006KT 19/13 A2962 RMK A01 T01920129  RH  067%=      5-min Rain = 0
KQU1 190117Z 27007KT 19/13 A2962 RMK A01 T01930127  RH  065%=      5-min Rain = 0
KQU1 190118Z 27007KT 19/13 A2962 RMK A01 T01940125  RH  064%=      5-min Rain = 0
KQU1 190119Z 27008KT 19/13 A2962 RMK A01 T01940125  RH  064%=      5-min Rain = 0
KQU1 190120Z 27007KT 20/12 A2962 RMK A01 T01950123  RH  063%=      5-min Rain = 0
KQU1 190121Z 26008KT 20/12 A2962 RMK A01 T01950122  RH  063%=      5-min Rain = 0
KQU1 190122Z 26009KT 19/12 A2962 RMK A01 T01940121  RH  062%=      5-min Rain = 0
KQU1 190123Z 26008KT 19/12 A2962 RMK A01 T01940119  RH  062%=      5-min Rain = 0
KQU1 190124Z 26008KT 20/12 A2962 RMK A01 T01950117  RH  061%=      5-min Rain = 0
KQU1 190125Z 26007KT 20/12 A2962 RMK A01 T01950117  RH  060%=      5-min Rain = 0
KQU1 190126Z 26007KT 20/12 A2963 RMK A01 T01950116  RH  060%=      5-min Rain = 0
KQU1 190127Z 26008KT 19/12 A2963 RMK A01 T01940115  RH  060%=      5-min Rain = 0
KQU1 190128Z 26008KT 19/11 A2963 RMK A01 T01940114  RH  060%=      5-min Rain = 0
KQU1 190129Z 26009KT 19/11 A2963 RMK A01 T01940113  RH  059%=      5-min Rain = 0
KQU1 190130Z 26009KT 20/11 A2963 RMK A01 T01950112  RH  059%=      5-min Rain = 0
KQU1 190131Z 26009KT 20/11 A2963 RMK A01 T01960111  RH  058%=      5-min Rain = 0
KQU1 190132Z 27009KT 20/11 A2963 RMK A01 T01970110  RH  057%=      5-min Rain = 0
KQU1 190133Z 27010KT 20/11 A2963 RMK A01 T01970110  RH  057%=      5-min Rain = 0
KQU1 190134Z 28010KT 20/11 A2963 RMK A01 T01980109  RH  056%=      5-min Rain = 0
KQU1 190135Z 28010KT 20/11 A2963 RMK A01 T02000108  RH  056%=      5-min Rain = 0
KQU1 190136Z 28007KT 20/11 A2963 RMK A01 T02020107  RH  055%=      5-min Rain = 0
KQU1 190137Z 28015KT 21/10 A2963 RMK A01 T02060104  RH  052%=      5-min Rain = 0
KQU1 190138Z 28015G20KT 21/10 A2963 RMK A01 T02120101  RH  049%=      5-min Rain = 0
KQU1 190139Z 28015KT 22/10 A2963 RMK A01 T02170099  RH  047%=      5-min Rain = 0
KQU1 190140Z 28014G19KT 22/10 A2963 RMK A01 T02200098  RH  046%=      5-min Rain = 0
KQU1 190141Z 28015KT 22/10 A2963 RMK A01 T02210098  RH  046%=      5-min Rain = 0
KQU1 190142Z 29015KT 22/10 A2963 RMK A01 T02220096  RH  045%=      5-min Rain = 0
KQU1 190143Z 29014KT 22/10 A2963 RMK A01 T02230096  RH  044%=      5-min Rain = 0
KQU1 190144Z 28013KT 22/10 A2963 RMK A01 T02230096  RH  045%=      5-min Rain = 0
KQU1 190145Z 27018G23KT 22/09 A2964 RMK A01 T02220094  RH  044%=      5-min Rain = 0
KQU1 190146Z 28017G22KT 22/09 A2964 RMK A01 T02230092  RH  043%=      5-min Rain = 0
KQU1 190147Z 27017KT 22/09 A2964 RMK A01 T02230092  RH  043%=      5-min Rain = 0
KQU1 190148Z 28015KT 22/09 A2964 RMK A01 T02220093  RH  044%=      5-min Rain = 0
KQU1 190149Z 28019KT 22/09 A2964 RMK A01 T02210092  RH  044%=      5-min Rain = 0
KQU1 190150Z 28020KT 22/09 A2964 RMK A01 T02210091  RH  044%=      5-min Rain = 0
KQU1 190151Z 28019KT 22/09 A2964 RMK A01 T02200090  RH  043%=      5-min Rain = 0
KQU1 190152Z 28018KT 22/09 A2964 RMK A01 T02210089  RH  043%=      5-min Rain = 0
KQU1 190153Z 28020KT 22/09 A2964 RMK A01 T02210088  RH  043%=      5-min Rain = 0
KQU1 190154Z 28022G28KT 22/08 A2964 RMK A01 T02210084  RH  041%=      5-min Rain = 0
KQU1 190155Z 29021G26KT 22/08 A2964 RMK A01 T02230083  RH  041%=      5-min Rain = 0
KQU1 190156Z 28020G28KT 22/08 A2964 RMK A01 T02230082  RH  040%=      5-min Rain = 0
KQU1 190157Z 28023KT 22/08 A2964 RMK A01 T02230081  RH  040%=      5-min Rain = 0
KQU1 190158Z 28020G26KT 22/08 A2964 RMK A01 T02240080  RH  040%=      5-min Rain = 0
KQU1 190159Z 28021G26KT 22/08 A2964 RMK A01 T02240080  RH  040%=      5-min Rain = 0
KQU1 190200Z 27023KT 22/08 A2965 RMK A01 T02240080  RH  040%=      5-min Rain = 0
KQU1 190201Z 26020G25KT 22/08 A2965 RMK A01 T02230082  RH  040%=      5-min Rain = 0
KQU1 190202Z 26023G28KT 22/08 A2966 RMK A01 T02220082  RH  040%=      5-min Rain = 0
KQU1 190203Z 26024G29KT 22/08 A2966 RMK A01 T02220081  RH  040%=      5-min Rain = 0
KQU1 190204Z 25021G26KT 22/08 A2967 RMK A01 T02220081  RH  040%=      5-min Rain = 0
KQU1 190205Z 25025G31KT 22/08 A2967 RMK A01 T02220082  RH  041%=      5-min Rain = 0
KQU1 190206Z 25026KT 22/08 A2967 RMK A01 T02210083  RH  041%=      5-min Rain = 0
KQU1 190207Z 25023G30KT 22/08 A2967 RMK A01 T02200083  RH  041%=      5-min Rain = 0
KQU1 190208Z 24023G29KT 22/08 A2968 RMK A01 T02200084  RH  042%=      5-min Rain = 0
KQU1 190209Z 25024G31KT 22/08 A2968 RMK A01 T02200083  RH  041%=      5-min Rain = 0
KQU1 190210Z 25024G29KT 22/08 A2968 RMK A01 T02210083  RH  041%=      5-min Rain = 0
KQU1 190211Z 25021KT 22/08 A2968 RMK A01 T02210084  RH  042%=      5-min Rain = 0
KQU1 190212Z 25022G29KT 22/09 A2968 RMK A01 T02200086  RH  042%=      5-min Rain = 0
KQU1 190213Z 25023G28KT 22/09 A2968 RMK A01 T02200086  RH  042%=      5-min Rain = 0
KQU1 190214Z 25021KT 22/09 A2968 RMK A01 T02200086  RH  042%=      5-min Rain = 0
KQU1 190215Z 25021KT 22/09 A2968 RMK A01 T02200086  RH  042%=      5-min Rain = 0
KQU1 190216Z 25026G33KT 22/09 A2968 RMK A01 T02190086  RH  043%=      5-min Rain = 0
KQU1 190217Z 26026G32KT 22/09 A2969 RMK A01 T02190086  RH  042%=      5-min Rain = 0
KQU1 190218Z 26030KT 22/09 A2969 RMK A01 T02200086  RH  042%=      5-min Rain = 0
KQU1 190219Z 26027KT 22/09 A2969 RMK A01 T02210085  RH  042%=      5-min Rain = 0
KQU1 190220Z 26025G31KT 22/09 A2969 RMK A01 T02210086  RH  042%=      5-min Rain = 0
KQU1 190221Z 27022G27KT 22/09 A2969 RMK A01 T02200087  RH  042%=      5-min Rain = 0
KQU1 190222Z 28023G30KT 22/09 A2968 RMK A01 T02190089  RH  043%=      5-min Rain = 0
KQU1 190223Z 28022G34KT 22/09 A2968 RMK A01 T02180092  RH  045%=      5-min Rain = 0
KQU1 190224Z 29026G31KT 22/10 A2967 RMK A01 T02150098  RH  047%=      5-min Rain = 0
KQU1 190225Z 29027G32KT 21/11 A2966 RMK A01 T02100105  RH  051%=      5-min Rain = 0
KQU1 190226Z 29025KT 20/11 A2967 RMK A01 T02040109  RH  054%=      5-min Rain = 0
KQU1 190227Z 29024G29KT 20/11 A2967 RMK A01 T02010110  RH  056%=      5-min Rain = 0
KQU1 190228Z 28019G24KT 20/11 A2967 RMK A01 T01970113  RH  058%=      5-min Rain = 0
KQU1 190229Z 29019KT 19/11 A2967 RMK A01 T01940113  RH  059%=      5-min Rain = 0
KQU1 190230Z 30016KT 19/11 A2966 RMK A01 T01930114  RH  060%=      5-min Rain = 0
KQU1 190231Z 30014G20KT 19/12 A2966 RMK A01 T01900117  RH  062%=      5-min Rain = 0
KQU1 190232Z 30016KT 19/12 A2966 RMK A01 T01880118  RH  063%=      5-min Rain = 0
KQU1 190233Z 29015KT 19/12 A2966 RMK A01 T01870118  RH  064%=      5-min Rain = 0
KQU1 190234Z 28015KT 19/12 A2967 RMK A01 T01860118  RH  065%=      5-min Rain = 0
KQU1 190235Z 28016KT 19/12 A2967 RMK A01 T01860116  RH  064%=      5-min Rain = 0
KQU1 190236Z 28014KT 19/12 A2967 RMK A01 T01860115  RH  063%=      5-min Rain = 0
KQU1 190237Z 29016KT 19/11 A2967 RMK A01 T01880112  RH  061%=      5-min Rain = 0
KQU1 190238Z 29014KT 19/11 A2967 RMK A01 T01890111  RH  060%=      5-min Rain = 0
KQU1 190239Z 29012KT 19/11 A2967 RMK A01 T01900111  RH  060%=      5-min Rain = 0
KQU1 190240Z 29013G19KT 19/11 A2967 RMK A01 T01910110  RH  059%=      5-min Rain = 0
KQU1 190241Z 29012KT 19/11 A2967 RMK A01 T01910110  RH  059%=      5-min Rain = 0
KQU1 190242Z 29013KT 19/11 A2967 RMK A01 T01920109  RH  059%=      5-min Rain = 0
KQU1 190243Z 29013KT 19/11 A2967 RMK A01 T01920108  RH  058%=      5-min Rain = 0
KQU1 190244Z 29013KT 19/11 A2967 RMK A01 T01930107  RH  057%=      5-min Rain = 0
KQU1 190245Z 28013G18KT 19/11 A2967 RMK A01 T01940107  RH  057%=      5-min Rain = 0
KQU1 190246Z 29014KT 19/11 A2967 RMK A01 T01940107  RH  057%=      5-min Rain = 0
KQU1 190247Z 29014KT 19/11 A2966 RMK A01 T01940106  RH  057%=      5-min Rain = 0
KQU1 190248Z 29014G19KT 19/11 A2966 RMK A01 T01940106  RH  056%=      5-min Rain = 0
KQU1 190249Z 29015KT 20/10 A2966 RMK A01 T01950104  RH  056%=      5-min Rain = 0
KQU1 190250Z 29016KT 20/10 A2966 RMK A01 T01960104  RH  055%=      5-min Rain = 0
KQU1 190251Z 29014G19KT 20/10 A2966 RMK A01 T01960104  RH  055%=      5-min Rain = 0
KQU1 190252Z 29014G19KT 20/10 A2967 RMK A01 T01960103  RH  055%=      5-min Rain = 0
KQU1 190253Z 29015KT 20/10 A2967 RMK A01 T01970101  RH  054%=      5-min Rain = 0
KQU1 190254Z 29014KT 20/10 A2967 RMK A01 T01970102  RH  054%=      5-min Rain = 0
KQU1 190255Z 29014KT 20/10 A2967 RMK A01 T01980101  RH  053%=      5-min Rain = 0
KQU1 190256Z 29014KT 20/10 A2967 RMK A01 T01980101  RH  054%=      5-min Rain = 0
KQU1 190257Z 29013KT 20/10 A2967 RMK A01 T01980101  RH  054%=      5-min Rain = 0
KQU1 190258Z 30012G17KT 20/10 A2967 RMK A01 T01970101  RH  054%=      5-min Rain = 0
KQU1 190259Z 30015KT 20/10 A2967 RMK A01 T01980099  RH  053%=      5-min Rain = 0
KQU1 190300Z 30014KT 20/10 A2967 RMK A01 T01980100  RH  053%=      5-min Rain = 0
KQU1 190301Z 30015KT 20/10 A2967 RMK A01 T01980100  RH  053%=      5-min Rain = 0
KQU1 190302Z 30013G18KT 20/10 A2967 RMK A01 T01980099  RH  053%=      5-min Rain = 0
KQU1 190303Z 29013KT 20/10 A2967 RMK A01 T01980098  RH  052%=      5-min Rain = 0
KQU1 190304Z 30013KT 20/10 A2967 RMK A01 T01990098  RH  052%=      5-min Rain = 0
KQU1 190305Z 29012KT 20/10 A2967 RMK A01 T01980098  RH  052%=      5-min Rain = 0
KQU1 190306Z 29013KT 20/10 A2967 RMK A01 T01980097  RH  052%=      5-min Rain = 0
KQU1 190307Z 29012KT 20/10 A2967 RMK A01 T01990097  RH  052%=      5-min Rain = 0
KQU1 190308Z 30014KT 20/10 A2967 RMK A01 T01990096  RH  051%=      5-min Rain = 0
KQU1 190309Z 30013KT 20/10 A2967 RMK A01 T01990096  RH  051%=      5-min Rain = 0
KQU1 190310Z 30012G17KT 20/10 A2967 RMK A01 T01990096  RH  051%=      5-min Rain = 0
KQU1 190311Z 30013KT 20/10 A2967 RMK A01 T01990095  RH  051%=      5-min Rain = 0
KQU1 190312Z 29012KT 20/09 A2967 RMK A01 T02000094  RH  050%=      5-min Rain = 0
KQU1 190313Z 30013KT 20/09 A2967 RMK A01 T02000093  RH  050%=      5-min Rain = 0
KQU1 190314Z 30013KT 20/09 A2967 RMK A01 T02010092  RH  049%=      5-min Rain = 0
KQU1 190315Z 30012KT 20/09 A2967 RMK A01 T02020092  RH  049%=      5-min Rain = 0
KQU1 190316Z 30011KT 20/09 A2967 RMK A01 T02020091  RH  049%=      5-min Rain = 0
KQU1 190317Z 30011KT 20/09 A2967 RMK A01 T02020092  RH  049%=      5-min Rain = 0
KQU1 190318Z 30011KT 20/09 A2967 RMK A01 T02030091  RH  049%=      5-min Rain = 0
KQU1 190319Z 30010KT 20/09 A2967 RMK A01 T02020091  RH  049%=      5-min Rain = 0
KQU1 190320Z 30012KT 20/09 A2967 RMK A01 T02020091  RH  049%=      5-min Rain = 0
KQU1 190321Z 30011KT 20/09 A2967 RMK A01 T02020091  RH  049%=      5-min Rain = 0
KQU1 190322Z 30011KT 20/09 A2967 RMK A01 T02020091  RH  049%=      5-min Rain = 0
KQU1 190323Z 30010KT 20/09 A2967 RMK A01 T02020090  RH  048%=      5-min Rain = 0
KQU1 190324Z 30011KT 20/09 A2967 RMK A01 T02030089  RH  048%=      5-min Rain = 0
KQU1 190325Z 30011KT 20/09 A2967 RMK A01 T02030089  RH  048%=      5-min Rain = 0
KQU1 190326Z 30010KT 20/09 A2967 RMK A01 T02040089  RH  048%=      5-min Rain = 0
KQU1 190327Z 30010KT 20/09 A2967 RMK A01 T02040089  RH  047%=      5-min Rain = 0
KQU1 190328Z 30010KT 20/09 A2967 RMK A01 T02040088  RH  047%=      5-min Rain = 0
KQU1 190329Z 29010KT 21/09 A2967 RMK A01 T02050087  RH  047%=      5-min Rain = 0
KQU1 190330Z 29009KT 21/09 A2967 RMK A01 T02050088  RH  047%=      5-min Rain = 0
KQU1 190331Z 29008KT 20/09 A2967 RMK A01 T02040089  RH  047%=      5-min Rain = 0
KQU1 190332Z 29010KT 20/09 A2967 RMK A01 T02030089  RH  048%=      5-min Rain = 0
KQU1 190333Z 29010KT 20/09 A2967 RMK A01 T02030089  RH  048%=      5-min Rain = 0
KQU1 190334Z 29009KT 20/09 A2967 RMK A01 T02020089  RH  048%=      5-min Rain = 0
KQU1 190335Z 29009KT 20/09 A2967 RMK A01 T02020089  RH  048%=      5-min Rain = 0
KQU1 190336Z 29009KT 20/09 A2967 RMK A01 T02010089  RH  048%=      5-min Rain = 0
KQU1 190337Z 28012KT 20/09 A2967 RMK A01 T02010088  RH  048%=      5-min Rain = 0
KQU1 190338Z 29012KT 20/09 A2967 RMK A01 T02010087  RH  048%=      5-min Rain = 0
KQU1 190339Z 29012KT 20/09 A2967 RMK A01 T02020086  RH  047%=      5-min Rain = 0
KQU1 190340Z 29012KT 20/09 A2967 RMK A01 T02020085  RH  047%=      5-min Rain = 0
KQU1 190341Z 29012KT 20/09 A2967 RMK A01 T02030085  RH  047%=      5-min Rain = 0
KQU1 190342Z 29011KT 20/09 A2967 RMK A01 T02030085  RH  047%=      5-min Rain = 0
KQU1 190343Z 29012KT 20/08 A2967 RMK A01 T02030084  RH  046%=      5-min Rain = 0
KQU1 190344Z 29011KT 20/08 A2967 RMK A01 T02030083  RH  046%=      5-min Rain = 0
KQU1 190345Z 29010KT 20/08 A2967 RMK A01 T02030083  RH  046%=      5-min Rain = 0
KQU1 190346Z 29011KT 20/08 A2967 RMK A01 T02030082  RH  046%=      5-min Rain = 0
KQU1 190347Z 29011KT 20/08 A2967 RMK A01 T02040081  RH  045%=      5-min Rain = 0
KQU1 190348Z 28010KT 20/08 A2967 RMK A01 T02040081  RH  045%=      5-min Rain = 0
KQU1 190349Z 29011KT 20/08 A2967 RMK A01 T02040081  RH  045%=      5-min Rain = 0
KQU1 190350Z 28009KT 20/08 A2967 RMK A01 T02040080  RH  045%=      5-min Rain = 0
KQU1 190351Z 29009KT 20/08 A2967 RMK A01 T02030081  RH  045%=      5-min Rain = 0
KQU1 190352Z 29010KT 20/08 A2967 RMK A01 T02020080  RH  045%=      5-min Rain = 0
KQU1 190353Z 28009KT 20/08 A2968 RMK A01 T02020080  RH  045%=      5-min Rain = 0
KQU1 190354Z 28008KT 20/08 A2968 RMK A01 T02010080  RH  046%=      5-min Rain = 0
KQU1 190355Z 28007KT 20/08 A2968 RMK A01 T02000081  RH  046%=      5-min Rain = 0
KQU1 190356Z 28007KT 20/08 A2968 RMK A01 T01970082  RH  047%=      5-min Rain = 0
KQU1 190357Z 28008KT 20/08 A2968 RMK A01 T01960082  RH  048%=      5-min Rain = 0
KQU1 190358Z 28010KT 20/08 A2968 RMK A01 T01950081  RH  048%=      5-min Rain = 0
KQU1 190359Z 28010KT 20/08 A2968 RMK A01 T01960081  RH  047%=      5-min Rain = 0
KQU1 190400Z 28010KT 20/08 A2968 RMK A01 T01970080  RH  047%=      5-min Rain = 0
KQU1 190401Z 28008KT 20/08 A2968 RMK A01 T01980080  RH  047%=      5-min Rain = 0
KQU1 190402Z 28008KT 20/08 A2968 RMK A01 T01970081  RH  047%=      5-min Rain = 0
KQU1 190403Z 28008KT 20/08 A2968 RMK A01 T01970081  RH  047%=      5-min Rain = 0
KQU1 190404Z 28008KT 20/08 A2968 RMK A01 T01970080  RH  047%=      5-min Rain = 0
KQU1 190405Z 27008KT 20/08 A2968 RMK A01 T01960080  RH  047%=      5-min Rain = 0
KQU1 190406Z 27008KT 20/08 A2968 RMK A01 T01960080  RH  047%=      5-min Rain = 0
KQU1 190407Z 27009KT 20/08 A2968 RMK A01 T01950080  RH  047%=      5-min Rain = 0
KQU1 190408Z 27007KT 20/08 A2968 RMK A01 T01950081  RH  048%=      5-min Rain = 0
KQU1 190409Z 27007KT 19/08 A2968 RMK A01 T01940081  RH  048%=      5-min Rain = 0
KQU1 190410Z 26008KT 19/08 A2968 RMK A01 T01930081  RH  048%=      5-min Rain = 0
KQU1 190411Z 26008KT 19/08 A2968 RMK A01 T01920080  RH  048%=      5-min Rain = 0
KQU1 190412Z 25008KT 19/08 A2968 RMK A01 T01900080  RH  049%=      5-min Rain = 0
KQU1 190413Z 25010KT 19/08 A2968 RMK A01 T01890079  RH  049%=      5-min Rain = 0
KQU1 190414Z 25011KT 19/08 A2968 RMK A01 T01890078  RH  048%=      5-min Rain = 0
KQU1 190415Z 25010KT 19/08 A2969 RMK A01 T01900078  RH  048%=      5-min Rain = 0
KQU1 190416Z 25010KT 19/08 A2969 RMK A01 T01900077  RH  048%=      5-min Rain = 0
KQU1 190417Z 25008KT 19/08 A2969 RMK A01 T01890077  RH  048%=      5-min Rain = 0
KQU1 190418Z 25007KT 19/08 A2969 RMK A01 T01880078  RH  049%=      5-min Rain = 0
KQU1 190419Z 25007KT 19/08 A2969 RMK A01 T01860078  RH  049%=      5-min Rain = 0
KQU1 190420Z 25006KT 19/08 A2969 RMK A01 T01850077  RH  049%=      5-min Rain = 0
KQU1 190421Z 24006KT 18/08 A2969 RMK A01 T01840077  RH  050%=      5-min Rain = 0
KQU1 190422Z 21005KT 18/08 A2969 RMK A01 T01830078  RH  050%=      5-min Rain = 0
KQU1 190423Z 18010KT 18/08 A2969 RMK A01 T01810079  RH  051%=      5-min Rain = 0
KQU1 190424Z 20010KT 18/08 A2969 RMK A01 T01790083  RH  054%=      5-min Rain = 0
KQU1 190425Z 21014KT 18/09 A2969 RMK A01 T01770087  RH  055%=      5-min Rain = 0
KQU1 190426Z 22014KT 18/09 A2969 RMK A01 T01770088  RH  056%=      5-min Rain = 0
KQU1 190427Z 23013KT 18/09 A2969 RMK A01 T01770088  RH  056%=      5-min Rain = 0
KQU1 190428Z 24012KT 18/09 A2969 RMK A01 T01780087  RH  055%=      5-min Rain = 0
KQU1 190429Z 23012KT 18/09 A2969 RMK A01 T01780087  RH  055%=      5-min Rain = 0
KQU1 190430Z 24013KT 18/09 A2969 RMK A01 T01780086  RH  055%=      5-min Rain = 0
KQU1 190431Z 24012KT 18/09 A2969 RMK A01 T01800085  RH  054%=      5-min Rain = 0
KQU1 190432Z 25011KT 18/09 A2969 RMK A01 T01810085  RH  053%=      5-min Rain = 0
KQU1 190433Z 25010KT 18/08 A2969 RMK A01 T01810084  RH  053%=      5-min Rain = 0
KQU1 190434Z 25009KT 18/08 A2969 RMK A01 T01810084  RH  053%=      5-min Rain = 0
KQU1 190435Z 26009KT 18/08 A2969 RMK A01 T01810084  RH  053%=      5-min Rain = 0
KQU1 190436Z 26010KT 18/08 A2969 RMK A01 T01800084  RH  053%=      5-min Rain = 0
KQU1 190437Z 25009KT 18/09 A2969 RMK A01 T01800085  RH  054%=      5-min Rain = 0
KQU1 190438Z 24008KT 18/09 A2969 RMK A01 T01790085  RH  054%=      5-min Rain = 0
KQU1 190439Z 25008KT 18/09 A2969 RMK A01 T01780085  RH  055%=      5-min Rain = 0
KQU1 190440Z 26009KT 18/09 A2969 RMK A01 T01760086  RH  055%=      5-min Rain = 0
KQU1 190441Z 26010KT 18/09 A2969 RMK A01 T01750086  RH  056%=      5-min Rain = 0
KQU1 190442Z 26009KT 18/09 A2969 RMK A01 T01750086  RH  056%=      5-min Rain = 0
KQU1 190443Z 26010KT 18/09 A2969 RMK A01 T01750086  RH  056%=      5-min Rain = 0
KQU1 190444Z 26012KT 18/09 A2969 RMK A01 T01750087  RH  056%=      5-min Rain = 0
KQU1 190445Z 25013KT 18/09 A2969 RMK A01 T01760087  RH  056%=      5-min Rain = 0
KQU1 190446Z 25013KT 18/09 A2969 RMK A01 T01780087  RH  055%=      5-min Rain = 0
KQU1 190447Z 25013KT 18/09 A2969 RMK A01 T01790086  RH  054%=      5-min Rain = 0
KQU1 190448Z 25013KT 18/09 A2969 RMK A01 T01800086  RH  054%=      5-min Rain = 0
KQU1 190449Z 25013KT 18/09 A2969 RMK A01 T01810086  RH  054%=      5-min Rain = 0
KQU1 190450Z 25013KT 18/09 A2969 RMK A01 T01810085  RH  054%=      5-min Rain = 0
KQU1 190451Z 25013KT 18/09 A2969 RMK A01 T01810085  RH  054%=      5-min Rain = 0
KQU1 190452Z 25013KT 18/09 A2969 RMK A01 T01810085  RH  053%=      5-min Rain = 0
KQU1 190453Z 24014KT 18/09 A2969 RMK A01 T01810085  RH  053%=      5-min Rain = 0
KQU1 190454Z 25013KT 18/09 A2969 RMK A01 T01820085  RH  053%=      5-min Rain = 0
KQU1 190455Z 25013KT 18/09 A2969 RMK A01 T01830085  RH  053%=      5-min Rain = 0
KQU1 190456Z 25012KT 18/09 A2969 RMK A01 T01840085  RH  053%=      5-min Rain = 0
KQU1 190457Z 24012KT 18/09 A2969 RMK A01 T01840085  RH  053%=      5-min Rain = 0
KQU1 190458Z 25012KT 18/08 A2969 RMK A01 T01840084  RH  052%=      5-min Rain = 0
KQU1 190459Z 25012KT 18/08 A2969 RMK A01 T01840084  RH  052%=      5-min Rain = 0

Page generated in 0.1414 seconds.